<?xml version="1.0" encoding="UTF-8" standalone="no" ?>
<gpx xmlns="http://www.topografix.com/GPX/1/1" xmlns:xsi="http://www.w3.org/2001/XMLSchema-instance" xsi:schemaLocation="http://www.topografix.com/GPX/1/1 http://www.topografix.com/GPX/1/1/gpx.xsd" version="1.1" creator="VisuGPX - https://www.visugpx.com">
  <metadata>
    <name>Vorges 2019-02-25</name>
    <desc><![CDATA[File with points/tracks from Locus Map/3.36.2]]></desc>
  </metadata>
  <trk>
    <name><![CDATA[2019-02-25 13:56:03]]></name>
    <trkseg>
      <trkpt lat="49.52468" lon="3.65914">
        <ele>87.01</ele>
        <time>2019-02-25T12:56:10.000Z</time>
      </trkpt>
      <trkpt lat="49.52467" lon="3.65913">
        <ele>92.1</ele>
        <time>2019-02-25T12:56:25.000Z</time>
      </trkpt>
      <trkpt lat="49.52466" lon="3.65913">
        <ele>94.19</ele>
        <time>2019-02-25T12:56:49.000Z</time>
      </trkpt>
      <trkpt lat="49.52468" lon="3.65914">
        <ele>94.81</ele>
        <time>2019-02-25T12:56:59.000Z</time>
      </trkpt>
      <trkpt lat="49.52469" lon="3.65911">
        <ele>95.39</ele>
        <time>2019-02-25T12:57:09.000Z</time>
      </trkpt>
      <trkpt lat="49.52466" lon="3.65907">
        <ele>95.42</ele>
        <time>2019-02-25T12:57:19.000Z</time>
      </trkpt>
      <trkpt lat="49.52466" lon="3.65903">
        <ele>95.53</ele>
        <time>2019-02-25T12:57:29.000Z</time>
      </trkpt>
      <trkpt lat="49.52467" lon="3.65901">
        <ele>100.74</ele>
        <time>2019-02-25T12:58:28.000Z</time>
      </trkpt>
      <trkpt lat="49.5247" lon="3.65895">
        <ele>101.11</ele>
        <time>2019-02-25T12:58:38.000Z</time>
      </trkpt>
      <trkpt lat="49.52473" lon="3.65892">
        <ele>101.52</ele>
        <time>2019-02-25T12:58:48.000Z</time>
      </trkpt>
      <trkpt lat="49.5247" lon="3.65893">
        <ele>101.36</ele>
        <time>2019-02-25T12:58:58.000Z</time>
      </trkpt>
      <trkpt lat="49.52472" lon="3.65893">
        <ele>101.14</ele>
        <time>2019-02-25T12:59:08.000Z</time>
      </trkpt>
      <trkpt lat="49.52471" lon="3.65894">
        <ele>99.83</ele>
        <time>2019-02-25T12:59:40.000Z</time>
      </trkpt>
      <trkpt lat="49.5247" lon="3.65896">
        <ele>98.47</ele>
        <time>2019-02-25T12:59:50.000Z</time>
      </trkpt>
      <trkpt lat="49.5247" lon="3.65893">
        <ele>97.53</ele>
        <time>2019-02-25T13:00:00.000Z</time>
      </trkpt>
      <trkpt lat="49.52471" lon="3.65895">
        <ele>93.02</ele>
        <time>2019-02-25T13:01:41.000Z</time>
      </trkpt>
      <trkpt lat="49.5247" lon="3.65897">
        <ele>92.75</ele>
        <time>2019-02-25T13:02:02.000Z</time>
      </trkpt>
      <trkpt lat="49.52467" lon="3.65903">
        <ele>90.31</ele>
        <time>2019-02-25T13:02:12.000Z</time>
      </trkpt>
      <trkpt lat="49.52468" lon="3.65904">
        <ele>88.37</ele>
        <time>2019-02-25T13:02:22.000Z</time>
      </trkpt>
      <trkpt lat="49.52471" lon="3.65905">
        <ele>86.97</ele>
        <time>2019-02-25T13:02:32.000Z</time>
      </trkpt>
      <trkpt lat="49.52474" lon="3.65904">
        <ele>86.56</ele>
        <time>2019-02-25T13:02:42.000Z</time>
      </trkpt>
      <trkpt lat="49.52472" lon="3.65904">
        <ele>86.07</ele>
        <time>2019-02-25T13:02:52.000Z</time>
      </trkpt>
      <trkpt lat="49.52472" lon="3.65907">
        <ele>85.56</ele>
        <time>2019-02-25T13:03:02.000Z</time>
      </trkpt>
      <trkpt lat="49.52472" lon="3.65902">
        <ele>84.58</ele>
        <time>2019-02-25T13:03:12.000Z</time>
      </trkpt>
      <trkpt lat="49.52471" lon="3.65899">
        <ele>83.97</ele>
        <time>2019-02-25T13:03:22.000Z</time>
      </trkpt>
      <trkpt lat="49.5247" lon="3.65897">
        <ele>85.69</ele>
        <time>2019-02-25T13:04:18.000Z</time>
      </trkpt>
      <trkpt lat="49.52468" lon="3.65896">
        <ele>86.6</ele>
        <time>2019-02-25T13:04:28.000Z</time>
      </trkpt>
      <trkpt lat="49.52469" lon="3.65897">
        <ele>87.29</ele>
        <time>2019-02-25T13:04:38.000Z</time>
      </trkpt>
      <trkpt lat="49.52468" lon="3.65899">
        <ele>88.16</ele>
        <time>2019-02-25T13:04:51.000Z</time>
      </trkpt>
      <trkpt lat="49.52465" lon="3.65906">
        <ele>88.44</ele>
        <time>2019-02-25T13:05:01.000Z</time>
      </trkpt>
      <trkpt lat="49.52465" lon="3.65916">
        <ele>89.17</ele>
        <time>2019-02-25T13:05:11.000Z</time>
      </trkpt>
      <trkpt lat="49.52465" lon="3.65912">
        <ele>89.83</ele>
        <time>2019-02-25T13:05:21.000Z</time>
      </trkpt>
      <trkpt lat="49.52461" lon="3.65904">
        <ele>89.46</ele>
        <time>2019-02-25T13:05:31.000Z</time>
      </trkpt>
      <trkpt lat="49.52457" lon="3.65888">
        <ele>88.95</ele>
        <time>2019-02-25T13:05:41.000Z</time>
      </trkpt>
      <trkpt lat="49.52449" lon="3.65871">
        <ele>88.51</ele>
        <time>2019-02-25T13:05:51.000Z</time>
      </trkpt>
      <trkpt lat="49.52448" lon="3.65873">
        <ele>88.21</ele>
        <time>2019-02-25T13:06:01.000Z</time>
      </trkpt>
      <trkpt lat="49.52448" lon="3.65871">
        <ele>88.42</ele>
        <time>2019-02-25T13:06:16.000Z</time>
      </trkpt>
      <trkpt lat="49.52444" lon="3.65861">
        <ele>88.69</ele>
        <time>2019-02-25T13:06:26.000Z</time>
      </trkpt>
      <trkpt lat="49.5244" lon="3.65845">
        <ele>89.48</ele>
        <time>2019-02-25T13:06:36.000Z</time>
      </trkpt>
      <trkpt lat="49.52431" lon="3.65824">
        <ele>91.08</ele>
        <time>2019-02-25T13:06:46.000Z</time>
      </trkpt>
      <trkpt lat="49.52427" lon="3.65809">
        <ele>91.14</ele>
        <time>2019-02-25T13:06:56.000Z</time>
      </trkpt>
      <trkpt lat="49.52418" lon="3.65802">
        <ele>90.03</ele>
        <time>2019-02-25T13:07:06.000Z</time>
      </trkpt>
      <trkpt lat="49.52411" lon="3.65781">
        <ele>89.11</ele>
        <time>2019-02-25T13:07:16.000Z</time>
      </trkpt>
      <trkpt lat="49.52407" lon="3.65758">
        <ele>88.69</ele>
        <time>2019-02-25T13:07:26.000Z</time>
      </trkpt>
      <trkpt lat="49.52399" lon="3.65738">
        <ele>89.5</ele>
        <time>2019-02-25T13:07:36.000Z</time>
      </trkpt>
      <trkpt lat="49.52387" lon="3.65723">
        <ele>91.02</ele>
        <time>2019-02-25T13:07:46.000Z</time>
      </trkpt>
      <trkpt lat="49.52377" lon="3.65713">
        <ele>91.74</ele>
        <time>2019-02-25T13:07:56.000Z</time>
      </trkpt>
      <trkpt lat="49.52367" lon="3.65709">
        <ele>88.9</ele>
        <time>2019-02-25T13:08:06.000Z</time>
      </trkpt>
      <trkpt lat="49.52359" lon="3.6571">
        <ele>84.11</ele>
        <time>2019-02-25T13:08:16.000Z</time>
      </trkpt>
      <trkpt lat="49.52348" lon="3.65715">
        <ele>79.27</ele>
        <time>2019-02-25T13:08:26.000Z</time>
      </trkpt>
      <trkpt lat="49.52336" lon="3.65707">
        <ele>76.9</ele>
        <time>2019-02-25T13:08:36.000Z</time>
      </trkpt>
      <trkpt lat="49.52325" lon="3.65692">
        <ele>76.62</ele>
        <time>2019-02-25T13:08:46.000Z</time>
      </trkpt>
      <trkpt lat="49.52315" lon="3.6567">
        <ele>75.36</ele>
        <time>2019-02-25T13:08:56.000Z</time>
      </trkpt>
      <trkpt lat="49.52303" lon="3.65665">
        <ele>72.59</ele>
        <time>2019-02-25T13:09:06.000Z</time>
      </trkpt>
      <trkpt lat="49.52292" lon="3.65655">
        <ele>68.68</ele>
        <time>2019-02-25T13:09:16.000Z</time>
      </trkpt>
      <trkpt lat="49.52282" lon="3.65635">
        <ele>67.66</ele>
        <time>2019-02-25T13:09:26.000Z</time>
      </trkpt>
      <trkpt lat="49.52268" lon="3.65617">
        <ele>67.33</ele>
        <time>2019-02-25T13:09:36.000Z</time>
      </trkpt>
      <trkpt lat="49.52257" lon="3.65595">
        <ele>69.26</ele>
        <time>2019-02-25T13:09:46.000Z</time>
      </trkpt>
      <trkpt lat="49.52249" lon="3.6558">
        <ele>72.03</ele>
        <time>2019-02-25T13:09:56.000Z</time>
      </trkpt>
      <trkpt lat="49.52238" lon="3.65569">
        <ele>74.44</ele>
        <time>2019-02-25T13:10:06.000Z</time>
      </trkpt>
      <trkpt lat="49.52227" lon="3.65557">
        <ele>76.41</ele>
        <time>2019-02-25T13:10:16.000Z</time>
      </trkpt>
      <trkpt lat="49.52218" lon="3.65552">
        <ele>78.33</ele>
        <time>2019-02-25T13:10:26.000Z</time>
      </trkpt>
      <trkpt lat="49.52208" lon="3.65545">
        <ele>80.41</ele>
        <time>2019-02-25T13:10:36.000Z</time>
      </trkpt>
      <trkpt lat="49.52194" lon="3.65531">
        <ele>81.44</ele>
        <time>2019-02-25T13:10:46.000Z</time>
      </trkpt>
      <trkpt lat="49.52181" lon="3.6552">
        <ele>83.8</ele>
        <time>2019-02-25T13:10:56.000Z</time>
      </trkpt>
      <trkpt lat="49.52174" lon="3.65518">
        <ele>85.13</ele>
        <time>2019-02-25T13:11:06.000Z</time>
      </trkpt>
      <trkpt lat="49.52171" lon="3.65525">
        <ele>83.52</ele>
        <time>2019-02-25T13:11:16.000Z</time>
      </trkpt>
      <trkpt lat="49.5217" lon="3.65537">
        <ele>80.68</ele>
        <time>2019-02-25T13:11:26.000Z</time>
      </trkpt>
      <trkpt lat="49.52154" lon="3.65532">
        <ele>76.78</ele>
        <time>2019-02-25T13:11:36.000Z</time>
      </trkpt>
      <trkpt lat="49.52132" lon="3.65521">
        <ele>75.93</ele>
        <time>2019-02-25T13:11:46.000Z</time>
      </trkpt>
      <trkpt lat="49.52117" lon="3.65519">
        <ele>76.3</ele>
        <time>2019-02-25T13:11:56.000Z</time>
      </trkpt>
      <trkpt lat="49.52103" lon="3.65522">
        <ele>75.69</ele>
        <time>2019-02-25T13:12:06.000Z</time>
      </trkpt>
      <trkpt lat="49.52092" lon="3.65528">
        <ele>74.03</ele>
        <time>2019-02-25T13:12:16.000Z</time>
      </trkpt>
      <trkpt lat="49.52083" lon="3.65532">
        <ele>74.16</ele>
        <time>2019-02-25T13:12:26.000Z</time>
      </trkpt>
      <trkpt lat="49.52072" lon="3.65536">
        <ele>75.35</ele>
        <time>2019-02-25T13:12:36.000Z</time>
      </trkpt>
      <trkpt lat="49.5206" lon="3.65545">
        <ele>76.1</ele>
        <time>2019-02-25T13:12:46.000Z</time>
      </trkpt>
      <trkpt lat="49.5205" lon="3.65551">
        <ele>76.29</ele>
        <time>2019-02-25T13:12:56.000Z</time>
      </trkpt>
      <trkpt lat="49.52039" lon="3.65553">
        <ele>77.01</ele>
        <time>2019-02-25T13:13:06.000Z</time>
      </trkpt>
      <trkpt lat="49.52027" lon="3.65556">
        <ele>78.09</ele>
        <time>2019-02-25T13:13:16.000Z</time>
      </trkpt>
      <trkpt lat="49.52016" lon="3.6556">
        <ele>78.7</ele>
        <time>2019-02-25T13:13:26.000Z</time>
      </trkpt>
      <trkpt lat="49.52007" lon="3.65565">
        <ele>79.61</ele>
        <time>2019-02-25T13:13:36.000Z</time>
      </trkpt>
      <trkpt lat="49.51998" lon="3.65574">
        <ele>80.99</ele>
        <time>2019-02-25T13:13:46.000Z</time>
      </trkpt>
      <trkpt lat="49.51988" lon="3.6558">
        <ele>81.79</ele>
        <time>2019-02-25T13:13:56.000Z</time>
      </trkpt>
      <trkpt lat="49.51979" lon="3.65592">
        <ele>83.49</ele>
        <time>2019-02-25T13:14:06.000Z</time>
      </trkpt>
      <trkpt lat="49.51973" lon="3.65603">
        <ele>85.61</ele>
        <time>2019-02-25T13:14:16.000Z</time>
      </trkpt>
      <trkpt lat="49.51969" lon="3.65616">
        <ele>87.34</ele>
        <time>2019-02-25T13:14:26.000Z</time>
      </trkpt>
      <trkpt lat="49.51964" lon="3.65616">
        <ele>87.39</ele>
        <time>2019-02-25T13:14:36.000Z</time>
      </trkpt>
      <trkpt lat="49.51963" lon="3.65617">
        <ele>86.74</ele>
        <time>2019-02-25T13:15:03.000Z</time>
      </trkpt>
      <trkpt lat="49.51968" lon="3.65621">
        <ele>83.86</ele>
        <time>2019-02-25T13:15:13.000Z</time>
      </trkpt>
      <trkpt lat="49.5197" lon="3.65634">
        <ele>79.91</ele>
        <time>2019-02-25T13:15:23.000Z</time>
      </trkpt>
      <trkpt lat="49.51976" lon="3.65641">
        <ele>74.04</ele>
        <time>2019-02-25T13:15:33.000Z</time>
      </trkpt>
      <trkpt lat="49.51979" lon="3.65648">
        <ele>68.75</ele>
        <time>2019-02-25T13:15:43.000Z</time>
      </trkpt>
      <trkpt lat="49.51979" lon="3.65671">
        <ele>65.67</ele>
        <time>2019-02-25T13:15:53.000Z</time>
      </trkpt>
      <trkpt lat="49.51973" lon="3.65691">
        <ele>63.75</ele>
        <time>2019-02-25T13:16:03.000Z</time>
      </trkpt>
      <trkpt lat="49.51967" lon="3.65699">
        <ele>64.1</ele>
        <time>2019-02-25T13:16:13.000Z</time>
      </trkpt>
      <trkpt lat="49.51955" lon="3.65712">
        <ele>65.31</ele>
        <time>2019-02-25T13:16:23.000Z</time>
      </trkpt>
      <trkpt lat="49.51937" lon="3.65728">
        <ele>67.46</ele>
        <time>2019-02-25T13:16:33.000Z</time>
      </trkpt>
      <trkpt lat="49.51926" lon="3.65737">
        <ele>71.52</ele>
        <time>2019-02-25T13:16:43.000Z</time>
      </trkpt>
      <trkpt lat="49.51914" lon="3.65744">
        <ele>75.48</ele>
        <time>2019-02-25T13:16:53.000Z</time>
      </trkpt>
      <trkpt lat="49.51902" lon="3.65754">
        <ele>78.51</ele>
        <time>2019-02-25T13:17:03.000Z</time>
      </trkpt>
      <trkpt lat="49.51896" lon="3.65761">
        <ele>79.02</ele>
        <time>2019-02-25T13:17:13.000Z</time>
      </trkpt>
      <trkpt lat="49.51886" lon="3.65769">
        <ele>78.88</ele>
        <time>2019-02-25T13:17:23.000Z</time>
      </trkpt>
      <trkpt lat="49.51874" lon="3.65777">
        <ele>78.86</ele>
        <time>2019-02-25T13:17:33.000Z</time>
      </trkpt>
      <trkpt lat="49.51862" lon="3.65785">
        <ele>79.69</ele>
        <time>2019-02-25T13:17:43.000Z</time>
      </trkpt>
      <trkpt lat="49.51856" lon="3.65794">
        <ele>81.18</ele>
        <time>2019-02-25T13:17:53.000Z</time>
      </trkpt>
      <trkpt lat="49.51847" lon="3.65804">
        <ele>81.95</ele>
        <time>2019-02-25T13:18:03.000Z</time>
      </trkpt>
      <trkpt lat="49.51845" lon="3.65807">
        <ele>83.91</ele>
        <time>2019-02-25T13:18:13.000Z</time>
      </trkpt>
      <trkpt lat="49.51836" lon="3.65817">
        <ele>85.13</ele>
        <time>2019-02-25T13:18:23.000Z</time>
      </trkpt>
      <trkpt lat="49.51825" lon="3.65816">
        <ele>86.77</ele>
        <time>2019-02-25T13:18:33.000Z</time>
      </trkpt>
      <trkpt lat="49.51816" lon="3.65817">
        <ele>88.21</ele>
        <time>2019-02-25T13:18:43.000Z</time>
      </trkpt>
      <trkpt lat="49.51797" lon="3.65828">
        <ele>88.92</ele>
        <time>2019-02-25T13:18:53.000Z</time>
      </trkpt>
      <trkpt lat="49.51792" lon="3.65841">
        <ele>89.86</ele>
        <time>2019-02-25T13:19:03.000Z</time>
      </trkpt>
      <trkpt lat="49.51797" lon="3.6585">
        <ele>91.11</ele>
        <time>2019-02-25T13:19:13.000Z</time>
      </trkpt>
      <trkpt lat="49.51803" lon="3.65864">
        <ele>92.21</ele>
        <time>2019-02-25T13:19:23.000Z</time>
      </trkpt>
      <trkpt lat="49.51808" lon="3.65867">
        <ele>92.25</ele>
        <time>2019-02-25T13:19:33.000Z</time>
      </trkpt>
      <trkpt lat="49.51806" lon="3.65867">
        <ele>90.99</ele>
        <time>2019-02-25T13:19:43.000Z</time>
      </trkpt>
      <trkpt lat="49.51805" lon="3.6587">
        <ele>88.19</ele>
        <time>2019-02-25T13:19:53.000Z</time>
      </trkpt>
      <trkpt lat="49.518" lon="3.65879">
        <ele>86.88</ele>
        <time>2019-02-25T13:20:03.000Z</time>
      </trkpt>
      <trkpt lat="49.51797" lon="3.65879">
        <ele>85.26</ele>
        <time>2019-02-25T13:20:15.000Z</time>
      </trkpt>
      <trkpt lat="49.51789" lon="3.65878">
        <ele>84.17</ele>
        <time>2019-02-25T13:20:25.000Z</time>
      </trkpt>
      <trkpt lat="49.51786" lon="3.65878">
        <ele>84.12</ele>
        <time>2019-02-25T13:20:42.000Z</time>
      </trkpt>
      <trkpt lat="49.51785" lon="3.65879">
        <ele>84.57</ele>
        <time>2019-02-25T13:20:52.000Z</time>
      </trkpt>
      <trkpt lat="49.51793" lon="3.6589">
        <ele>85.42</ele>
        <time>2019-02-25T13:21:02.000Z</time>
      </trkpt>
      <trkpt lat="49.51799" lon="3.65904">
        <ele>86.46</ele>
        <time>2019-02-25T13:21:12.000Z</time>
      </trkpt>
      <trkpt lat="49.51804" lon="3.65918">
        <ele>86.41</ele>
        <time>2019-02-25T13:21:22.000Z</time>
      </trkpt>
      <trkpt lat="49.51803" lon="3.65923">
        <ele>83.6</ele>
        <time>2019-02-25T13:21:32.000Z</time>
      </trkpt>
      <trkpt lat="49.51812" lon="3.65934">
        <ele>82.41</ele>
        <time>2019-02-25T13:21:42.000Z</time>
      </trkpt>
      <trkpt lat="49.51814" lon="3.65962">
        <ele>81.99</ele>
        <time>2019-02-25T13:21:52.000Z</time>
      </trkpt>
      <trkpt lat="49.51813" lon="3.65987">
        <ele>81.25</ele>
        <time>2019-02-25T13:22:02.000Z</time>
      </trkpt>
      <trkpt lat="49.5181" lon="3.66007">
        <ele>79.28</ele>
        <time>2019-02-25T13:22:12.000Z</time>
      </trkpt>
      <trkpt lat="49.51806" lon="3.66027">
        <ele>76.28</ele>
        <time>2019-02-25T13:22:22.000Z</time>
      </trkpt>
      <trkpt lat="49.51806" lon="3.6605">
        <ele>71.77</ele>
        <time>2019-02-25T13:22:32.000Z</time>
      </trkpt>
      <trkpt lat="49.51806" lon="3.66067">
        <ele>65.36</ele>
        <time>2019-02-25T13:22:42.000Z</time>
      </trkpt>
      <trkpt lat="49.51805" lon="3.66081">
        <ele>59.51</ele>
        <time>2019-02-25T13:22:52.000Z</time>
      </trkpt>
      <trkpt lat="49.51803" lon="3.66091">
        <ele>55.83</ele>
        <time>2019-02-25T13:23:02.000Z</time>
      </trkpt>
      <trkpt lat="49.51801" lon="3.66095">
        <ele>54.61</ele>
        <time>2019-02-25T13:23:12.000Z</time>
      </trkpt>
      <trkpt lat="49.51794" lon="3.66101">
        <ele>58.18</ele>
        <time>2019-02-25T13:23:22.000Z</time>
      </trkpt>
      <trkpt lat="49.51782" lon="3.66128">
        <ele>65.71</ele>
        <time>2019-02-25T13:23:32.000Z</time>
      </trkpt>
      <trkpt lat="49.5177" lon="3.66147">
        <ele>72.62</ele>
        <time>2019-02-25T13:23:42.000Z</time>
      </trkpt>
      <trkpt lat="49.51762" lon="3.66159">
        <ele>79.68</ele>
        <time>2019-02-25T13:23:52.000Z</time>
      </trkpt>
      <trkpt lat="49.51757" lon="3.66168">
        <ele>84.82</ele>
        <time>2019-02-25T13:24:02.000Z</time>
      </trkpt>
      <trkpt lat="49.51752" lon="3.66179">
        <ele>87.99</ele>
        <time>2019-02-25T13:24:12.000Z</time>
      </trkpt>
      <trkpt lat="49.51747" lon="3.66197">
        <ele>90.82</ele>
        <time>2019-02-25T13:24:22.000Z</time>
      </trkpt>
      <trkpt lat="49.5174" lon="3.66212">
        <ele>94.64</ele>
        <time>2019-02-25T13:24:31.999Z</time>
      </trkpt>
      <trkpt lat="49.5173" lon="3.6623">
        <ele>98.15</ele>
        <time>2019-02-25T13:24:41.999Z</time>
      </trkpt>
      <trkpt lat="49.51723" lon="3.66243">
        <ele>101.4</ele>
        <time>2019-02-25T13:24:51.999Z</time>
      </trkpt>
      <trkpt lat="49.51718" lon="3.66259">
        <ele>103.57</ele>
        <time>2019-02-25T13:25:01.999Z</time>
      </trkpt>
      <trkpt lat="49.51722" lon="3.66258">
        <ele>101.42</ele>
        <time>2019-02-25T13:25:11.999Z</time>
      </trkpt>
      <trkpt lat="49.51724" lon="3.66259">
        <ele>99.99</ele>
        <time>2019-02-25T13:25:21.999Z</time>
      </trkpt>
      <trkpt lat="49.51723" lon="3.66259">
        <ele>99.82</ele>
        <time>2019-02-25T13:25:31.999Z</time>
      </trkpt>
      <trkpt lat="49.51724" lon="3.66258">
        <ele>99.92</ele>
        <time>2019-02-25T13:25:42.999Z</time>
      </trkpt>
      <trkpt lat="49.51722" lon="3.66265">
        <ele>98.23</ele>
        <time>2019-02-25T13:25:52.999Z</time>
      </trkpt>
      <trkpt lat="49.51718" lon="3.66263">
        <ele>97.28</ele>
        <time>2019-02-25T13:26:02.999Z</time>
      </trkpt>
      <trkpt lat="49.51717" lon="3.66263">
        <ele>97.1</ele>
        <time>2019-02-25T13:26:13.999Z</time>
      </trkpt>
      <trkpt lat="49.51724" lon="3.6627">
        <ele>96.97</ele>
        <time>2019-02-25T13:26:23.999Z</time>
      </trkpt>
      <trkpt lat="49.51727" lon="3.66273">
        <ele>96.67</ele>
        <time>2019-02-25T13:26:33.999Z</time>
      </trkpt>
      <trkpt lat="49.51734" lon="3.66276">
        <ele>93.74</ele>
        <time>2019-02-25T13:26:43.999Z</time>
      </trkpt>
      <trkpt lat="49.51731" lon="3.66281">
        <ele>89.12</ele>
        <time>2019-02-25T13:26:53.999Z</time>
      </trkpt>
      <trkpt lat="49.51728" lon="3.66282">
        <ele>85.29</ele>
        <time>2019-02-25T13:27:03.999Z</time>
      </trkpt>
      <trkpt lat="49.51719" lon="3.66289">
        <ele>82.2</ele>
        <time>2019-02-25T13:27:13.999Z</time>
      </trkpt>
      <trkpt lat="49.51713" lon="3.66305">
        <ele>79.74</ele>
        <time>2019-02-25T13:27:23.999Z</time>
      </trkpt>
      <trkpt lat="49.51705" lon="3.66324">
        <ele>78.1</ele>
        <time>2019-02-25T13:27:33.999Z</time>
      </trkpt>
      <trkpt lat="49.51694" lon="3.66343">
        <ele>76.79</ele>
        <time>2019-02-25T13:27:43.999Z</time>
      </trkpt>
      <trkpt lat="49.51684" lon="3.66358">
        <ele>76.23</ele>
        <time>2019-02-25T13:27:53.999Z</time>
      </trkpt>
      <trkpt lat="49.51671" lon="3.66374">
        <ele>76.71</ele>
        <time>2019-02-25T13:28:03.999Z</time>
      </trkpt>
      <trkpt lat="49.5166" lon="3.66388">
        <ele>78.28</ele>
        <time>2019-02-25T13:28:13.999Z</time>
      </trkpt>
      <trkpt lat="49.5165" lon="3.66396">
        <ele>81.22</ele>
        <time>2019-02-25T13:28:23.999Z</time>
      </trkpt>
      <trkpt lat="49.51636" lon="3.664">
        <ele>83.61</ele>
        <time>2019-02-25T13:28:33.999Z</time>
      </trkpt>
      <trkpt lat="49.51622" lon="3.66408">
        <ele>85.43</ele>
        <time>2019-02-25T13:28:43.999Z</time>
      </trkpt>
      <trkpt lat="49.51606" lon="3.66415">
        <ele>86.05</ele>
        <time>2019-02-25T13:28:53.999Z</time>
      </trkpt>
      <trkpt lat="49.51593" lon="3.66423">
        <ele>85.94</ele>
        <time>2019-02-25T13:29:03.999Z</time>
      </trkpt>
      <trkpt lat="49.51579" lon="3.66436">
        <ele>87.64</ele>
        <time>2019-02-25T13:29:13.999Z</time>
      </trkpt>
      <trkpt lat="49.51561" lon="3.66461">
        <ele>91.89</ele>
        <time>2019-02-25T13:29:23.999Z</time>
      </trkpt>
      <trkpt lat="49.51545" lon="3.66483">
        <ele>96.34</ele>
        <time>2019-02-25T13:29:33.999Z</time>
      </trkpt>
      <trkpt lat="49.51535" lon="3.66497">
        <ele>100.08</ele>
        <time>2019-02-25T13:29:43.999Z</time>
      </trkpt>
      <trkpt lat="49.51528" lon="3.66506">
        <ele>102.73</ele>
        <time>2019-02-25T13:29:53.999Z</time>
      </trkpt>
      <trkpt lat="49.51526" lon="3.66504">
        <ele>104.53</ele>
        <time>2019-02-25T13:30:03.999Z</time>
      </trkpt>
      <trkpt lat="49.51527" lon="3.66506">
        <ele>106.85</ele>
        <time>2019-02-25T13:30:14.999Z</time>
      </trkpt>
      <trkpt lat="49.51526" lon="3.66518">
        <ele>108.49</ele>
        <time>2019-02-25T13:30:24.999Z</time>
      </trkpt>
      <trkpt lat="49.51525" lon="3.66522">
        <ele>109.9</ele>
        <time>2019-02-25T13:30:34.999Z</time>
      </trkpt>
      <trkpt lat="49.51524" lon="3.66521">
        <ele>109.74</ele>
        <time>2019-02-25T13:30:44.999Z</time>
      </trkpt>
      <trkpt lat="49.51523" lon="3.66522">
        <ele>106.78</ele>
        <time>2019-02-25T13:30:54.999Z</time>
      </trkpt>
      <trkpt lat="49.51517" lon="3.66522">
        <ele>104.35</ele>
        <time>2019-02-25T13:31:04.999Z</time>
      </trkpt>
      <trkpt lat="49.51514" lon="3.66522">
        <ele>103.19</ele>
        <time>2019-02-25T13:31:14.999Z</time>
      </trkpt>
      <trkpt lat="49.51518" lon="3.66529">
        <ele>102.57</ele>
        <time>2019-02-25T13:31:24.999Z</time>
      </trkpt>
      <trkpt lat="49.51525" lon="3.66531">
        <ele>102.18</ele>
        <time>2019-02-25T13:31:34.999Z</time>
      </trkpt>
      <trkpt lat="49.51528" lon="3.66538">
        <ele>101.26</ele>
        <time>2019-02-25T13:31:44.999Z</time>
      </trkpt>
      <trkpt lat="49.51525" lon="3.66556">
        <ele>101.75</ele>
        <time>2019-02-25T13:31:54.999Z</time>
      </trkpt>
      <trkpt lat="49.51518" lon="3.66575">
        <ele>104.62</ele>
        <time>2019-02-25T13:32:04.999Z</time>
      </trkpt>
      <trkpt lat="49.51508" lon="3.66592">
        <ele>106.85</ele>
        <time>2019-02-25T13:32:14.999Z</time>
      </trkpt>
      <trkpt lat="49.51502" lon="3.66605">
        <ele>108.75</ele>
        <time>2019-02-25T13:32:24.999Z</time>
      </trkpt>
      <trkpt lat="49.51498" lon="3.66619">
        <ele>110.47</ele>
        <time>2019-02-25T13:32:34.999Z</time>
      </trkpt>
      <trkpt lat="49.51492" lon="3.66634">
        <ele>111.43</ele>
        <time>2019-02-25T13:32:44.999Z</time>
      </trkpt>
      <trkpt lat="49.51489" lon="3.66645">
        <ele>112.48</ele>
        <time>2019-02-25T13:32:54.999Z</time>
      </trkpt>
      <trkpt lat="49.51484" lon="3.66658">
        <ele>113.67</ele>
        <time>2019-02-25T13:33:04.999Z</time>
      </trkpt>
      <trkpt lat="49.5148" lon="3.6667">
        <ele>114.12</ele>
        <time>2019-02-25T13:33:14.999Z</time>
      </trkpt>
      <trkpt lat="49.5148" lon="3.66676">
        <ele>114.92</ele>
        <time>2019-02-25T13:33:24.999Z</time>
      </trkpt>
      <trkpt lat="49.51477" lon="3.6669">
        <ele>116.02</ele>
        <time>2019-02-25T13:33:34.999Z</time>
      </trkpt>
      <trkpt lat="49.51473" lon="3.66699">
        <ele>117.78</ele>
        <time>2019-02-25T13:33:44.999Z</time>
      </trkpt>
      <trkpt lat="49.51468" lon="3.66707">
        <ele>120.35</ele>
        <time>2019-02-25T13:33:54.999Z</time>
      </trkpt>
      <trkpt lat="49.51464" lon="3.66718">
        <ele>122.68</ele>
        <time>2019-02-25T13:34:04.999Z</time>
      </trkpt>
      <trkpt lat="49.51459" lon="3.66728">
        <ele>124.92</ele>
        <time>2019-02-25T13:34:14.999Z</time>
      </trkpt>
      <trkpt lat="49.51456" lon="3.66737">
        <ele>126.67</ele>
        <time>2019-02-25T13:34:24.999Z</time>
      </trkpt>
      <trkpt lat="49.51455" lon="3.66744">
        <ele>129.59</ele>
        <time>2019-02-25T13:34:34.999Z</time>
      </trkpt>
      <trkpt lat="49.51451" lon="3.66759">
        <ele>133.98</ele>
        <time>2019-02-25T13:34:44.999Z</time>
      </trkpt>
      <trkpt lat="49.51444" lon="3.6677">
        <ele>138.63</ele>
        <time>2019-02-25T13:34:54.999Z</time>
      </trkpt>
      <trkpt lat="49.51438" lon="3.66782">
        <ele>142.63</ele>
        <time>2019-02-25T13:35:04.999Z</time>
      </trkpt>
      <trkpt lat="49.51435" lon="3.66791">
        <ele>145.37</ele>
        <time>2019-02-25T13:35:14.999Z</time>
      </trkpt>
      <trkpt lat="49.51431" lon="3.66802">
        <ele>147.37</ele>
        <time>2019-02-25T13:35:24.999Z</time>
      </trkpt>
      <trkpt lat="49.51426" lon="3.66817">
        <ele>149.68</ele>
        <time>2019-02-25T13:35:34.999Z</time>
      </trkpt>
      <trkpt lat="49.51422" lon="3.66831">
        <ele>150.97</ele>
        <time>2019-02-25T13:35:44.999Z</time>
      </trkpt>
      <trkpt lat="49.51419" lon="3.66841">
        <ele>150.44</ele>
        <time>2019-02-25T13:35:54.999Z</time>
      </trkpt>
      <trkpt lat="49.51418" lon="3.6685">
        <ele>149.7</ele>
        <time>2019-02-25T13:36:04.999Z</time>
      </trkpt>
      <trkpt lat="49.51418" lon="3.66862">
        <ele>149.74</ele>
        <time>2019-02-25T13:36:14.999Z</time>
      </trkpt>
      <trkpt lat="49.51419" lon="3.66871">
        <ele>149.32</ele>
        <time>2019-02-25T13:36:24.999Z</time>
      </trkpt>
      <trkpt lat="49.51422" lon="3.66882">
        <ele>148.71</ele>
        <time>2019-02-25T13:36:34.999Z</time>
      </trkpt>
      <trkpt lat="49.51426" lon="3.6689">
        <ele>147.52</ele>
        <time>2019-02-25T13:36:44.999Z</time>
      </trkpt>
      <trkpt lat="49.51423" lon="3.66891">
        <ele>145.88</ele>
        <time>2019-02-25T13:36:54.999Z</time>
      </trkpt>
      <trkpt lat="49.51419" lon="3.66894">
        <ele>142.95</ele>
        <time>2019-02-25T13:37:04.999Z</time>
      </trkpt>
      <trkpt lat="49.5142" lon="3.66896">
        <ele>139.86</ele>
        <time>2019-02-25T13:37:15.999Z</time>
      </trkpt>
      <trkpt lat="49.51419" lon="3.66901">
        <ele>138.8</ele>
        <time>2019-02-25T13:37:25.999Z</time>
      </trkpt>
      <trkpt lat="49.5142" lon="3.66903">
        <ele>137.61</ele>
        <time>2019-02-25T13:38:07.999Z</time>
      </trkpt>
      <trkpt lat="49.51419" lon="3.66907">
        <ele>136.7</ele>
        <time>2019-02-25T13:38:17.999Z</time>
      </trkpt>
      <trkpt lat="49.51422" lon="3.669">
        <ele>131.44</ele>
        <time>2019-02-25T13:39:42.999Z</time>
      </trkpt>
      <trkpt lat="49.51427" lon="3.66882">
        <ele>131.25</ele>
        <time>2019-02-25T13:39:52.999Z</time>
      </trkpt>
      <trkpt lat="49.51428" lon="3.66884">
        <ele>132.34</ele>
        <time>2019-02-25T13:41:25.999Z</time>
      </trkpt>
      <trkpt lat="49.51429" lon="3.66888">
        <ele>133.08</ele>
        <time>2019-02-25T13:41:35.999Z</time>
      </trkpt>
      <trkpt lat="49.51426" lon="3.66886">
        <ele>133.64</ele>
        <time>2019-02-25T13:41:45.999Z</time>
      </trkpt>
      <trkpt lat="49.51418" lon="3.6689">
        <ele>133.71</ele>
        <time>2019-02-25T13:41:55.999Z</time>
      </trkpt>
      <trkpt lat="49.51407" lon="3.66898">
        <ele>133.31</ele>
        <time>2019-02-25T13:42:05.999Z</time>
      </trkpt>
      <trkpt lat="49.51395" lon="3.66909">
        <ele>132.53</ele>
        <time>2019-02-25T13:42:15.999Z</time>
      </trkpt>
      <trkpt lat="49.51385" lon="3.66919">
        <ele>132.75</ele>
        <time>2019-02-25T13:42:25.999Z</time>
      </trkpt>
      <trkpt lat="49.51374" lon="3.66927">
        <ele>133.38</ele>
        <time>2019-02-25T13:42:35.999Z</time>
      </trkpt>
      <trkpt lat="49.51365" lon="3.66933">
        <ele>134.37</ele>
        <time>2019-02-25T13:42:45.999Z</time>
      </trkpt>
      <trkpt lat="49.51356" lon="3.6694">
        <ele>135.24</ele>
        <time>2019-02-25T13:42:55.999Z</time>
      </trkpt>
      <trkpt lat="49.51345" lon="3.66944">
        <ele>135.99</ele>
        <time>2019-02-25T13:43:05.999Z</time>
      </trkpt>
      <trkpt lat="49.51337" lon="3.66955">
        <ele>136.71</ele>
        <time>2019-02-25T13:43:15.999Z</time>
      </trkpt>
      <trkpt lat="49.51329" lon="3.66957">
        <ele>137.58</ele>
        <time>2019-02-25T13:43:25.999Z</time>
      </trkpt>
      <trkpt lat="49.51314" lon="3.66958">
        <ele>138.32</ele>
        <time>2019-02-25T13:43:35.999Z</time>
      </trkpt>
      <trkpt lat="49.51297" lon="3.66964">
        <ele>140.08</ele>
        <time>2019-02-25T13:43:45.999Z</time>
      </trkpt>
      <trkpt lat="49.51286" lon="3.66968">
        <ele>143.23</ele>
        <time>2019-02-25T13:43:55.999Z</time>
      </trkpt>
      <trkpt lat="49.51272" lon="3.66972">
        <ele>146.94</ele>
        <time>2019-02-25T13:44:05.999Z</time>
      </trkpt>
      <trkpt lat="49.51269" lon="3.66979">
        <ele>149.03</ele>
        <time>2019-02-25T13:44:15.999Z</time>
      </trkpt>
      <trkpt lat="49.51269" lon="3.66977">
        <ele>149.87</ele>
        <time>2019-02-25T13:44:25.999Z</time>
      </trkpt>
      <trkpt lat="49.51257" lon="3.66981">
        <ele>151.18</ele>
        <time>2019-02-25T13:44:35.999Z</time>
      </trkpt>
      <trkpt lat="49.51248" lon="3.66988">
        <ele>153.25</ele>
        <time>2019-02-25T13:44:45.999Z</time>
      </trkpt>
      <trkpt lat="49.51239" lon="3.66989">
        <ele>155.9</ele>
        <time>2019-02-25T13:44:55.999Z</time>
      </trkpt>
      <trkpt lat="49.5123" lon="3.66996">
        <ele>158.26</ele>
        <time>2019-02-25T13:45:05.999Z</time>
      </trkpt>
      <trkpt lat="49.51222" lon="3.67002">
        <ele>159.7</ele>
        <time>2019-02-25T13:45:15.999Z</time>
      </trkpt>
      <trkpt lat="49.51213" lon="3.6701">
        <ele>159.9</ele>
        <time>2019-02-25T13:45:25.999Z</time>
      </trkpt>
      <trkpt lat="49.51201" lon="3.67019">
        <ele>160.31</ele>
        <time>2019-02-25T13:45:35.999Z</time>
      </trkpt>
      <trkpt lat="49.51191" lon="3.67023">
        <ele>160.91</ele>
        <time>2019-02-25T13:45:45.999Z</time>
      </trkpt>
      <trkpt lat="49.51182" lon="3.67026">
        <ele>161.09</ele>
        <time>2019-02-25T13:45:55.999Z</time>
      </trkpt>
      <trkpt lat="49.51173" lon="3.67034">
        <ele>161.35</ele>
        <time>2019-02-25T13:46:05.999Z</time>
      </trkpt>
      <trkpt lat="49.51162" lon="3.6704">
        <ele>161.45</ele>
        <time>2019-02-25T13:46:15.999Z</time>
      </trkpt>
      <trkpt lat="49.5115" lon="3.67043">
        <ele>161.05</ele>
        <time>2019-02-25T13:46:25.999Z</time>
      </trkpt>
      <trkpt lat="49.51138" lon="3.67045">
        <ele>161.87</ele>
        <time>2019-02-25T13:46:35.999Z</time>
      </trkpt>
      <trkpt lat="49.5113" lon="3.67048">
        <ele>163.16</ele>
        <time>2019-02-25T13:46:45.999Z</time>
      </trkpt>
      <trkpt lat="49.5112" lon="3.67053">
        <ele>164.28</ele>
        <time>2019-02-25T13:46:55.999Z</time>
      </trkpt>
      <trkpt lat="49.51108" lon="3.6706">
        <ele>165.77</ele>
        <time>2019-02-25T13:47:05.999Z</time>
      </trkpt>
      <trkpt lat="49.51098" lon="3.67069">
        <ele>167.17</ele>
        <time>2019-02-25T13:47:15.999Z</time>
      </trkpt>
      <trkpt lat="49.51089" lon="3.67073">
        <ele>167.85</ele>
        <time>2019-02-25T13:47:25.999Z</time>
      </trkpt>
      <trkpt lat="49.51077" lon="3.67074">
        <ele>167.95</ele>
        <time>2019-02-25T13:47:35.999Z</time>
      </trkpt>
      <trkpt lat="49.51067" lon="3.67078">
        <ele>167.95</ele>
        <time>2019-02-25T13:47:45.999Z</time>
      </trkpt>
      <trkpt lat="49.51057" lon="3.67084">
        <ele>168.17</ele>
        <time>2019-02-25T13:47:55.999Z</time>
      </trkpt>
      <trkpt lat="49.51046" lon="3.67092">
        <ele>168.75</ele>
        <time>2019-02-25T13:48:05.999Z</time>
      </trkpt>
      <trkpt lat="49.51034" lon="3.671">
        <ele>169.59</ele>
        <time>2019-02-25T13:48:15.999Z</time>
      </trkpt>
      <trkpt lat="49.51025" lon="3.67107">
        <ele>170.55</ele>
        <time>2019-02-25T13:48:25.999Z</time>
      </trkpt>
      <trkpt lat="49.51015" lon="3.67118">
        <ele>171.24</ele>
        <time>2019-02-25T13:48:35.999Z</time>
      </trkpt>
      <trkpt lat="49.51003" lon="3.67123">
        <ele>171.93</ele>
        <time>2019-02-25T13:48:45.999Z</time>
      </trkpt>
      <trkpt lat="49.50991" lon="3.67127">
        <ele>172.68</ele>
        <time>2019-02-25T13:48:55.999Z</time>
      </trkpt>
      <trkpt lat="49.5098" lon="3.67131">
        <ele>173.52</ele>
        <time>2019-02-25T13:49:05.999Z</time>
      </trkpt>
      <trkpt lat="49.50969" lon="3.67134">
        <ele>174.53</ele>
        <time>2019-02-25T13:49:15.999Z</time>
      </trkpt>
      <trkpt lat="49.50958" lon="3.67138">
        <ele>175.61</ele>
        <time>2019-02-25T13:49:25.999Z</time>
      </trkpt>
      <trkpt lat="49.50947" lon="3.67146">
        <ele>176.38</ele>
        <time>2019-02-25T13:49:35.999Z</time>
      </trkpt>
      <trkpt lat="49.50937" lon="3.67153">
        <ele>176.98</ele>
        <time>2019-02-25T13:49:45.999Z</time>
      </trkpt>
      <trkpt lat="49.50927" lon="3.67162">
        <ele>177.3</ele>
        <time>2019-02-25T13:49:55.999Z</time>
      </trkpt>
      <trkpt lat="49.50917" lon="3.6717">
        <ele>177.4</ele>
        <time>2019-02-25T13:50:05.999Z</time>
      </trkpt>
      <trkpt lat="49.50907" lon="3.67176">
        <ele>177.41</ele>
        <time>2019-02-25T13:50:15.999Z</time>
      </trkpt>
      <trkpt lat="49.50894" lon="3.67185">
        <ele>177.45</ele>
        <time>2019-02-25T13:50:25.999Z</time>
      </trkpt>
      <trkpt lat="49.50882" lon="3.67189">
        <ele>177.32</ele>
        <time>2019-02-25T13:50:35.999Z</time>
      </trkpt>
      <trkpt lat="49.5087" lon="3.67194">
        <ele>177.55</ele>
        <time>2019-02-25T13:50:45.999Z</time>
      </trkpt>
      <trkpt lat="49.5086" lon="3.67201">
        <ele>177.93</ele>
        <time>2019-02-25T13:50:55.999Z</time>
      </trkpt>
      <trkpt lat="49.50849" lon="3.67205">
        <ele>178.56</ele>
        <time>2019-02-25T13:51:05.999Z</time>
      </trkpt>
      <trkpt lat="49.50839" lon="3.67209">
        <ele>178.83</ele>
        <time>2019-02-25T13:51:15.999Z</time>
      </trkpt>
      <trkpt lat="49.50829" lon="3.67216">
        <ele>178.96</ele>
        <time>2019-02-25T13:51:25.999Z</time>
      </trkpt>
      <trkpt lat="49.50817" lon="3.6722">
        <ele>179.11</ele>
        <time>2019-02-25T13:51:35.999Z</time>
      </trkpt>
      <trkpt lat="49.50808" lon="3.67224">
        <ele>179.37</ele>
        <time>2019-02-25T13:51:45.999Z</time>
      </trkpt>
      <trkpt lat="49.50804" lon="3.67227">
        <ele>179.3</ele>
        <time>2019-02-25T13:51:55.999Z</time>
      </trkpt>
      <trkpt lat="49.50799" lon="3.67213">
        <ele>177.86</ele>
        <time>2019-02-25T13:52:05.999Z</time>
      </trkpt>
      <trkpt lat="49.50795" lon="3.67192">
        <ele>174.59</ele>
        <time>2019-02-25T13:52:15.999Z</time>
      </trkpt>
      <trkpt lat="49.5079" lon="3.6717">
        <ele>169.12</ele>
        <time>2019-02-25T13:52:25.999Z</time>
      </trkpt>
      <trkpt lat="49.50786" lon="3.67155">
        <ele>162.64</ele>
        <time>2019-02-25T13:52:35.999Z</time>
      </trkpt>
      <trkpt lat="49.50779" lon="3.67139">
        <ele>155.79</ele>
        <time>2019-02-25T13:52:45.999Z</time>
      </trkpt>
      <trkpt lat="49.50771" lon="3.67122">
        <ele>148.31</ele>
        <time>2019-02-25T13:52:55.999Z</time>
      </trkpt>
      <trkpt lat="49.50764" lon="3.67108">
        <ele>142.26</ele>
        <time>2019-02-25T13:53:05.999Z</time>
      </trkpt>
      <trkpt lat="49.50768" lon="3.67104">
        <ele>144.59</ele>
        <time>2019-02-25T13:53:15.999Z</time>
      </trkpt>
      <trkpt lat="49.50766" lon="3.67089">
        <ele>149.43</ele>
        <time>2019-02-25T13:53:25.999Z</time>
      </trkpt>
      <trkpt lat="49.50762" lon="3.67075">
        <ele>154.15</ele>
        <time>2019-02-25T13:53:35.999Z</time>
      </trkpt>
      <trkpt lat="49.50759" lon="3.67064">
        <ele>158.29</ele>
        <time>2019-02-25T13:53:45.999Z</time>
      </trkpt>
      <trkpt lat="49.50754" lon="3.67057">
        <ele>161.71</ele>
        <time>2019-02-25T13:53:55.999Z</time>
      </trkpt>
      <trkpt lat="49.50746" lon="3.67046">
        <ele>165.35</ele>
        <time>2019-02-25T13:54:05.999Z</time>
      </trkpt>
      <trkpt lat="49.50741" lon="3.67027">
        <ele>168.99</ele>
        <time>2019-02-25T13:54:15.999Z</time>
      </trkpt>
      <trkpt lat="49.50728" lon="3.67006">
        <ele>172.48</ele>
        <time>2019-02-25T13:54:25.999Z</time>
      </trkpt>
      <trkpt lat="49.50722" lon="3.66991">
        <ele>175.34</ele>
        <time>2019-02-25T13:54:35.999Z</time>
      </trkpt>
      <trkpt lat="49.50719" lon="3.66975">
        <ele>177.72</ele>
        <time>2019-02-25T13:54:45.999Z</time>
      </trkpt>
      <trkpt lat="49.50716" lon="3.66958">
        <ele>180.09</ele>
        <time>2019-02-25T13:54:55.999Z</time>
      </trkpt>
      <trkpt lat="49.5071" lon="3.66941">
        <ele>182.48</ele>
        <time>2019-02-25T13:55:05.999Z</time>
      </trkpt>
      <trkpt lat="49.50704" lon="3.66926">
        <ele>184.58</ele>
        <time>2019-02-25T13:55:15.999Z</time>
      </trkpt>
      <trkpt lat="49.50696" lon="3.6691">
        <ele>184.48</ele>
        <time>2019-02-25T13:55:25.999Z</time>
      </trkpt>
      <trkpt lat="49.50683" lon="3.66912">
        <ele>183.44</ele>
        <time>2019-02-25T13:55:35.999Z</time>
      </trkpt>
      <trkpt lat="49.50679" lon="3.66919">
        <ele>182.19</ele>
        <time>2019-02-25T13:55:45.999Z</time>
      </trkpt>
      <trkpt lat="49.50677" lon="3.66919">
        <ele>180.54</ele>
        <time>2019-02-25T13:55:55.999Z</time>
      </trkpt>
      <trkpt lat="49.50672" lon="3.66924">
        <ele>177.59</ele>
        <time>2019-02-25T13:56:05.999Z</time>
      </trkpt>
      <trkpt lat="49.50665" lon="3.6693">
        <ele>175.02</ele>
        <time>2019-02-25T13:56:15.999Z</time>
      </trkpt>
      <trkpt lat="49.50655" lon="3.66935">
        <ele>172.95</ele>
        <time>2019-02-25T13:56:25.999Z</time>
      </trkpt>
      <trkpt lat="49.50643" lon="3.66941">
        <ele>171.12</ele>
        <time>2019-02-25T13:56:35.999Z</time>
      </trkpt>
      <trkpt lat="49.50634" lon="3.66944">
        <ele>169.92</ele>
        <time>2019-02-25T13:56:45.999Z</time>
      </trkpt>
      <trkpt lat="49.50624" lon="3.66949">
        <ele>168.46</ele>
        <time>2019-02-25T13:56:55.999Z</time>
      </trkpt>
      <trkpt lat="49.5061" lon="3.66957">
        <ele>167.03</ele>
        <time>2019-02-25T13:57:05.999Z</time>
      </trkpt>
      <trkpt lat="49.50597" lon="3.66961">
        <ele>165.91</ele>
        <time>2019-02-25T13:57:15.999Z</time>
      </trkpt>
      <trkpt lat="49.50585" lon="3.66962">
        <ele>164.17</ele>
        <time>2019-02-25T13:57:25.999Z</time>
      </trkpt>
      <trkpt lat="49.50572" lon="3.66958">
        <ele>162.43</ele>
        <time>2019-02-25T13:57:35.999Z</time>
      </trkpt>
      <trkpt lat="49.5056" lon="3.66953">
        <ele>161.41</ele>
        <time>2019-02-25T13:57:45.999Z</time>
      </trkpt>
      <trkpt lat="49.50547" lon="3.6695">
        <ele>161.1</ele>
        <time>2019-02-25T13:57:55.999Z</time>
      </trkpt>
      <trkpt lat="49.50534" lon="3.66946">
        <ele>160.61</ele>
        <time>2019-02-25T13:58:05.999Z</time>
      </trkpt>
      <trkpt lat="49.50523" lon="3.66941">
        <ele>159.94</ele>
        <time>2019-02-25T13:58:15.999Z</time>
      </trkpt>
      <trkpt lat="49.50512" lon="3.66939">
        <ele>159.17</ele>
        <time>2019-02-25T13:58:25.999Z</time>
      </trkpt>
      <trkpt lat="49.50502" lon="3.66937">
        <ele>158.51</ele>
        <time>2019-02-25T13:58:35.999Z</time>
      </trkpt>
      <trkpt lat="49.50492" lon="3.6693">
        <ele>157.81</ele>
        <time>2019-02-25T13:58:45.999Z</time>
      </trkpt>
      <trkpt lat="49.50478" lon="3.66926">
        <ele>156.82</ele>
        <time>2019-02-25T13:58:55.999Z</time>
      </trkpt>
      <trkpt lat="49.50465" lon="3.66926">
        <ele>156.85</ele>
        <time>2019-02-25T13:59:05.999Z</time>
      </trkpt>
      <trkpt lat="49.50453" lon="3.66928">
        <ele>157.31</ele>
        <time>2019-02-25T13:59:15.999Z</time>
      </trkpt>
      <trkpt lat="49.50444" lon="3.66927">
        <ele>157.51</ele>
        <time>2019-02-25T13:59:25.999Z</time>
      </trkpt>
      <trkpt lat="49.50433" lon="3.66932">
        <ele>158.18</ele>
        <time>2019-02-25T13:59:35.999Z</time>
      </trkpt>
      <trkpt lat="49.50422" lon="3.66939">
        <ele>158.91</ele>
        <time>2019-02-25T13:59:45.999Z</time>
      </trkpt>
      <trkpt lat="49.50413" lon="3.66944">
        <ele>159.6</ele>
        <time>2019-02-25T13:59:55.999Z</time>
      </trkpt>
      <trkpt lat="49.50401" lon="3.66952">
        <ele>160.91</ele>
        <time>2019-02-25T14:00:05.999Z</time>
      </trkpt>
      <trkpt lat="49.50389" lon="3.6696">
        <ele>162.06</ele>
        <time>2019-02-25T14:00:15.999Z</time>
      </trkpt>
      <trkpt lat="49.50379" lon="3.66964">
        <ele>163.5</ele>
        <time>2019-02-25T14:00:25.999Z</time>
      </trkpt>
      <trkpt lat="49.50368" lon="3.66963">
        <ele>164.68</ele>
        <time>2019-02-25T14:00:35.999Z</time>
      </trkpt>
      <trkpt lat="49.50358" lon="3.66963">
        <ele>164.49</ele>
        <time>2019-02-25T14:00:45.999Z</time>
      </trkpt>
      <trkpt lat="49.5035" lon="3.66961">
        <ele>163.9</ele>
        <time>2019-02-25T14:00:55.999Z</time>
      </trkpt>
      <trkpt lat="49.50339" lon="3.66955">
        <ele>163.7</ele>
        <time>2019-02-25T14:01:05.999Z</time>
      </trkpt>
      <trkpt lat="49.50325" lon="3.66952">
        <ele>163.87</ele>
        <time>2019-02-25T14:01:15.999Z</time>
      </trkpt>
      <trkpt lat="49.50311" lon="3.66948">
        <ele>164.8</ele>
        <time>2019-02-25T14:01:25.999Z</time>
      </trkpt>
      <trkpt lat="49.50299" lon="3.6694">
        <ele>167.51</ele>
        <time>2019-02-25T14:01:35.999Z</time>
      </trkpt>
      <trkpt lat="49.50292" lon="3.6693">
        <ele>171.57</ele>
        <time>2019-02-25T14:01:45.999Z</time>
      </trkpt>
      <trkpt lat="49.50283" lon="3.66919">
        <ele>175.93</ele>
        <time>2019-02-25T14:01:55.999Z</time>
      </trkpt>
      <trkpt lat="49.50274" lon="3.66909">
        <ele>178.9</ele>
        <time>2019-02-25T14:02:05.999Z</time>
      </trkpt>
      <trkpt lat="49.50263" lon="3.669">
        <ele>181.2</ele>
        <time>2019-02-25T14:02:15.999Z</time>
      </trkpt>
      <trkpt lat="49.5025" lon="3.66896">
        <ele>183.21</ele>
        <time>2019-02-25T14:02:25.999Z</time>
      </trkpt>
      <trkpt lat="49.50239" lon="3.66892">
        <ele>184.47</ele>
        <time>2019-02-25T14:02:35.999Z</time>
      </trkpt>
      <trkpt lat="49.50227" lon="3.66889">
        <ele>184.76</ele>
        <time>2019-02-25T14:02:45.999Z</time>
      </trkpt>
      <trkpt lat="49.50221" lon="3.66888">
        <ele>185.46</ele>
        <time>2019-02-25T14:02:55.999Z</time>
      </trkpt>
      <trkpt lat="49.50213" lon="3.66882">
        <ele>185.71</ele>
        <time>2019-02-25T14:03:05.999Z</time>
      </trkpt>
      <trkpt lat="49.50206" lon="3.66869">
        <ele>186.79</ele>
        <time>2019-02-25T14:03:15.999Z</time>
      </trkpt>
      <trkpt lat="49.50202" lon="3.66859">
        <ele>187.97</ele>
        <time>2019-02-25T14:03:25.999Z</time>
      </trkpt>
      <trkpt lat="49.50202" lon="3.66855">
        <ele>188.37</ele>
        <time>2019-02-25T14:03:35.999Z</time>
      </trkpt>
      <trkpt lat="49.50203" lon="3.66855">
        <ele>188.17</ele>
        <time>2019-02-25T14:03:45.999Z</time>
      </trkpt>
      <trkpt lat="49.50205" lon="3.66858">
        <ele>186.69</ele>
        <time>2019-02-25T14:03:55.999Z</time>
      </trkpt>
      <trkpt lat="49.50201" lon="3.66853">
        <ele>181.88</ele>
        <time>2019-02-25T14:04:05.999Z</time>
      </trkpt>
      <trkpt lat="49.50196" lon="3.66838">
        <ele>180.28</ele>
        <time>2019-02-25T14:04:15.999Z</time>
      </trkpt>
      <trkpt lat="49.50197" lon="3.66838">
        <ele>179.93</ele>
        <time>2019-02-25T14:04:25.999Z</time>
      </trkpt>
      <trkpt lat="49.50198" lon="3.66835">
        <ele>179.71</ele>
        <time>2019-02-25T14:04:35.999Z</time>
      </trkpt>
      <trkpt lat="49.50197" lon="3.66839">
        <ele>178.98</ele>
        <time>2019-02-25T14:04:45.999Z</time>
      </trkpt>
      <trkpt lat="49.50192" lon="3.66848">
        <ele>178.45</ele>
        <time>2019-02-25T14:04:55.999Z</time>
      </trkpt>
      <trkpt lat="49.5019" lon="3.66858">
        <ele>179.08</ele>
        <time>2019-02-25T14:05:05.999Z</time>
      </trkpt>
      <trkpt lat="49.50187" lon="3.66855">
        <ele>179.59</ele>
        <time>2019-02-25T14:05:15.999Z</time>
      </trkpt>
      <trkpt lat="49.50188" lon="3.66853">
        <ele>179.61</ele>
        <time>2019-02-25T14:05:25.999Z</time>
      </trkpt>
      <trkpt lat="49.50187" lon="3.66852">
        <ele>181.11</ele>
        <time>2019-02-25T14:06:38.000Z</time>
      </trkpt>
      <trkpt lat="49.50184" lon="3.66843">
        <ele>181.91</ele>
        <time>2019-02-25T14:06:48.000Z</time>
      </trkpt>
      <trkpt lat="49.50183" lon="3.66841">
        <ele>182.58</ele>
        <time>2019-02-25T14:06:59.000Z</time>
      </trkpt>
      <trkpt lat="49.50175" lon="3.66834">
        <ele>182.87</ele>
        <time>2019-02-25T14:07:09.000Z</time>
      </trkpt>
      <trkpt lat="49.50168" lon="3.66833">
        <ele>182.42</ele>
        <time>2019-02-25T14:07:19.000Z</time>
      </trkpt>
      <trkpt lat="49.50159" lon="3.66826">
        <ele>181.74</ele>
        <time>2019-02-25T14:07:29.000Z</time>
      </trkpt>
      <trkpt lat="49.50151" lon="3.66816">
        <ele>180.81</ele>
        <time>2019-02-25T14:07:39.000Z</time>
      </trkpt>
      <trkpt lat="49.5014" lon="3.66806">
        <ele>179.01</ele>
        <time>2019-02-25T14:07:49.000Z</time>
      </trkpt>
      <trkpt lat="49.5013" lon="3.66791">
        <ele>175.84</ele>
        <time>2019-02-25T14:07:59.000Z</time>
      </trkpt>
      <trkpt lat="49.50124" lon="3.66782">
        <ele>173.83</ele>
        <time>2019-02-25T14:08:09.000Z</time>
      </trkpt>
      <trkpt lat="49.50118" lon="3.66772">
        <ele>172.67</ele>
        <time>2019-02-25T14:08:19.000Z</time>
      </trkpt>
      <trkpt lat="49.5011" lon="3.66759">
        <ele>172.54</ele>
        <time>2019-02-25T14:08:29.000Z</time>
      </trkpt>
      <trkpt lat="49.50102" lon="3.66747">
        <ele>173.13</ele>
        <time>2019-02-25T14:08:39.000Z</time>
      </trkpt>
      <trkpt lat="49.50096" lon="3.6674">
        <ele>174.68</ele>
        <time>2019-02-25T14:08:49.000Z</time>
      </trkpt>
      <trkpt lat="49.50088" lon="3.66738">
        <ele>176.61</ele>
        <time>2019-02-25T14:08:59.000Z</time>
      </trkpt>
      <trkpt lat="49.50076" lon="3.66735">
        <ele>178.33</ele>
        <time>2019-02-25T14:09:09.000Z</time>
      </trkpt>
      <trkpt lat="49.50064" lon="3.66731">
        <ele>180.01</ele>
        <time>2019-02-25T14:09:19.000Z</time>
      </trkpt>
      <trkpt lat="49.50054" lon="3.66728">
        <ele>181.65</ele>
        <time>2019-02-25T14:09:29.000Z</time>
      </trkpt>
      <trkpt lat="49.50043" lon="3.66728">
        <ele>183.44</ele>
        <time>2019-02-25T14:09:39.000Z</time>
      </trkpt>
      <trkpt lat="49.50034" lon="3.66729">
        <ele>185.03</ele>
        <time>2019-02-25T14:09:49.000Z</time>
      </trkpt>
      <trkpt lat="49.50022" lon="3.66735">
        <ele>186.36</ele>
        <time>2019-02-25T14:09:59.000Z</time>
      </trkpt>
      <trkpt lat="49.50013" lon="3.66739">
        <ele>187.25</ele>
        <time>2019-02-25T14:10:09.000Z</time>
      </trkpt>
      <trkpt lat="49.50003" lon="3.66744">
        <ele>188.05</ele>
        <time>2019-02-25T14:10:19.000Z</time>
      </trkpt>
      <trkpt lat="49.49995" lon="3.66749">
        <ele>189.03</ele>
        <time>2019-02-25T14:10:29.000Z</time>
      </trkpt>
      <trkpt lat="49.49988" lon="3.6675">
        <ele>189.83</ele>
        <time>2019-02-25T14:10:39.000Z</time>
      </trkpt>
      <trkpt lat="49.49983" lon="3.66748">
        <ele>189.84</ele>
        <time>2019-02-25T14:10:49.000Z</time>
      </trkpt>
      <trkpt lat="49.49968" lon="3.66753">
        <ele>189</ele>
        <time>2019-02-25T14:10:59.000Z</time>
      </trkpt>
      <trkpt lat="49.49953" lon="3.66757">
        <ele>189.61</ele>
        <time>2019-02-25T14:11:09.000Z</time>
      </trkpt>
      <trkpt lat="49.49937" lon="3.66761">
        <ele>191.05</ele>
        <time>2019-02-25T14:11:19.000Z</time>
      </trkpt>
      <trkpt lat="49.49924" lon="3.66764">
        <ele>193.08</ele>
        <time>2019-02-25T14:11:29.000Z</time>
      </trkpt>
      <trkpt lat="49.49915" lon="3.66772">
        <ele>194.77</ele>
        <time>2019-02-25T14:11:39.000Z</time>
      </trkpt>
      <trkpt lat="49.4991" lon="3.6678">
        <ele>195.37</ele>
        <time>2019-02-25T14:11:49.000Z</time>
      </trkpt>
      <trkpt lat="49.49909" lon="3.66784">
        <ele>195.51</ele>
        <time>2019-02-25T14:11:59.000Z</time>
      </trkpt>
      <trkpt lat="49.49906" lon="3.66788">
        <ele>195.72</ele>
        <time>2019-02-25T14:12:09.000Z</time>
      </trkpt>
      <trkpt lat="49.49907" lon="3.6679">
        <ele>195.82</ele>
        <time>2019-02-25T14:12:19.000Z</time>
      </trkpt>
      <trkpt lat="49.49908" lon="3.66792">
        <ele>195.72</ele>
        <time>2019-02-25T14:12:30.000Z</time>
      </trkpt>
      <trkpt lat="49.49906" lon="3.66793">
        <ele>195.09</ele>
        <time>2019-02-25T14:12:40.000Z</time>
      </trkpt>
      <trkpt lat="49.499" lon="3.66797">
        <ele>195.03</ele>
        <time>2019-02-25T14:12:50.000Z</time>
      </trkpt>
      <trkpt lat="49.49897" lon="3.66802">
        <ele>195.49</ele>
        <time>2019-02-25T14:13:00.000Z</time>
      </trkpt>
      <trkpt lat="49.49897" lon="3.668">
        <ele>195.75</ele>
        <time>2019-02-25T14:13:10.000Z</time>
      </trkpt>
      <trkpt lat="49.49896" lon="3.66799">
        <ele>195.66</ele>
        <time>2019-02-25T14:13:20.000Z</time>
      </trkpt>
      <trkpt lat="49.49898" lon="3.66801">
        <ele>195.59</ele>
        <time>2019-02-25T14:13:30.000Z</time>
      </trkpt>
      <trkpt lat="49.49901" lon="3.66798">
        <ele>195.28</ele>
        <time>2019-02-25T14:13:40.000Z</time>
      </trkpt>
      <trkpt lat="49.49901" lon="3.66796">
        <ele>194.57</ele>
        <time>2019-02-25T14:13:56.000Z</time>
      </trkpt>
      <trkpt lat="49.49902" lon="3.66796">
        <ele>192.66</ele>
        <time>2019-02-25T14:14:39.000Z</time>
      </trkpt>
      <trkpt lat="49.49904" lon="3.66796">
        <ele>191.56</ele>
        <time>2019-02-25T14:14:49.000Z</time>
      </trkpt>
      <trkpt lat="49.49903" lon="3.66795">
        <ele>189.9</ele>
        <time>2019-02-25T14:15:12.000Z</time>
      </trkpt>
      <trkpt lat="49.49904" lon="3.66796">
        <ele>189.8</ele>
        <time>2019-02-25T14:15:24.000Z</time>
      </trkpt>
      <trkpt lat="49.49904" lon="3.66794">
        <ele>192.39</ele>
        <time>2019-02-25T14:16:55.000Z</time>
      </trkpt>
      <trkpt lat="49.49907" lon="3.66789">
        <ele>192.18</ele>
        <time>2019-02-25T14:17:05.000Z</time>
      </trkpt>
      <trkpt lat="49.49908" lon="3.6679">
        <ele>188.65</ele>
        <time>2019-02-25T14:17:51.000Z</time>
      </trkpt>
      <trkpt lat="49.49906" lon="3.66793">
        <ele>188.55</ele>
        <time>2019-02-25T14:18:01.000Z</time>
      </trkpt>
      <trkpt lat="49.49905" lon="3.66794">
        <ele>188.84</ele>
        <time>2019-02-25T14:18:37.000Z</time>
      </trkpt>
      <trkpt lat="49.49901" lon="3.66797">
        <ele>189.11</ele>
        <time>2019-02-25T14:18:47.000Z</time>
      </trkpt>
      <trkpt lat="49.49899" lon="3.66798">
        <ele>188.85</ele>
        <time>2019-02-25T14:18:57.000Z</time>
      </trkpt>
      <trkpt lat="49.49899" lon="3.66796">
        <ele>180.88</ele>
        <time>2019-02-25T14:20:17.000Z</time>
      </trkpt>
      <trkpt lat="49.49904" lon="3.6679">
        <ele>182.42</ele>
        <time>2019-02-25T14:20:27.000Z</time>
      </trkpt>
      <trkpt lat="49.49905" lon="3.6679">
        <ele>183.73</ele>
        <time>2019-02-25T14:20:37.000Z</time>
      </trkpt>
      <trkpt lat="49.49906" lon="3.66791">
        <ele>189.27</ele>
        <time>2019-02-25T14:21:57.000Z</time>
      </trkpt>
      <trkpt lat="49.49908" lon="3.66798">
        <ele>188.52</ele>
        <time>2019-02-25T14:22:07.000Z</time>
      </trkpt>
      <trkpt lat="49.49907" lon="3.66799">
        <ele>188.29</ele>
        <time>2019-02-25T14:22:32.000Z</time>
      </trkpt>
      <trkpt lat="49.49905" lon="3.66801">
        <ele>188.33</ele>
        <time>2019-02-25T14:22:42.000Z</time>
      </trkpt>
      <trkpt lat="49.49905" lon="3.66803">
        <ele>188.68</ele>
        <time>2019-02-25T14:22:52.000Z</time>
      </trkpt>
      <trkpt lat="49.49902" lon="3.66801">
        <ele>189.24</ele>
        <time>2019-02-25T14:23:02.000Z</time>
      </trkpt>
      <trkpt lat="49.49894" lon="3.66801">
        <ele>189.67</ele>
        <time>2019-02-25T14:23:12.000Z</time>
      </trkpt>
      <trkpt lat="49.49882" lon="3.66801">
        <ele>190</ele>
        <time>2019-02-25T14:23:22.000Z</time>
      </trkpt>
      <trkpt lat="49.49867" lon="3.66792">
        <ele>190.2</ele>
        <time>2019-02-25T14:23:32.000Z</time>
      </trkpt>
      <trkpt lat="49.49854" lon="3.66784">
        <ele>190.43</ele>
        <time>2019-02-25T14:23:42.000Z</time>
      </trkpt>
      <trkpt lat="49.49843" lon="3.66781">
        <ele>190.54</ele>
        <time>2019-02-25T14:23:52.000Z</time>
      </trkpt>
      <trkpt lat="49.4983" lon="3.66779">
        <ele>190.59</ele>
        <time>2019-02-25T14:24:02.000Z</time>
      </trkpt>
      <trkpt lat="49.49819" lon="3.66779">
        <ele>191.31</ele>
        <time>2019-02-25T14:24:12.000Z</time>
      </trkpt>
      <trkpt lat="49.49808" lon="3.66778">
        <ele>192.55</ele>
        <time>2019-02-25T14:24:22.000Z</time>
      </trkpt>
      <trkpt lat="49.49799" lon="3.66782">
        <ele>193.56</ele>
        <time>2019-02-25T14:24:32.000Z</time>
      </trkpt>
      <trkpt lat="49.4979" lon="3.66785">
        <ele>194.2</ele>
        <time>2019-02-25T14:24:42.000Z</time>
      </trkpt>
      <trkpt lat="49.4978" lon="3.66783">
        <ele>194.28</ele>
        <time>2019-02-25T14:24:52.000Z</time>
      </trkpt>
      <trkpt lat="49.49771" lon="3.66783">
        <ele>194.6</ele>
        <time>2019-02-25T14:25:02.000Z</time>
      </trkpt>
      <trkpt lat="49.49762" lon="3.66789">
        <ele>194.79</ele>
        <time>2019-02-25T14:25:12.000Z</time>
      </trkpt>
      <trkpt lat="49.49751" lon="3.66794">
        <ele>195.04</ele>
        <time>2019-02-25T14:25:22.000Z</time>
      </trkpt>
      <trkpt lat="49.49739" lon="3.66802">
        <ele>195.51</ele>
        <time>2019-02-25T14:25:32.000Z</time>
      </trkpt>
      <trkpt lat="49.49728" lon="3.66804">
        <ele>196.49</ele>
        <time>2019-02-25T14:25:42.000Z</time>
      </trkpt>
      <trkpt lat="49.49716" lon="3.6681">
        <ele>198.06</ele>
        <time>2019-02-25T14:25:52.000Z</time>
      </trkpt>
      <trkpt lat="49.49704" lon="3.66814">
        <ele>199.41</ele>
        <time>2019-02-25T14:26:02.000Z</time>
      </trkpt>
      <trkpt lat="49.49692" lon="3.6682">
        <ele>200.73</ele>
        <time>2019-02-25T14:26:12.000Z</time>
      </trkpt>
      <trkpt lat="49.49681" lon="3.66822">
        <ele>201.88</ele>
        <time>2019-02-25T14:26:22.000Z</time>
      </trkpt>
      <trkpt lat="49.49671" lon="3.66826">
        <ele>202.97</ele>
        <time>2019-02-25T14:26:32.000Z</time>
      </trkpt>
      <trkpt lat="49.49662" lon="3.66832">
        <ele>203.58</ele>
        <time>2019-02-25T14:26:42.000Z</time>
      </trkpt>
      <trkpt lat="49.49652" lon="3.66835">
        <ele>203.57</ele>
        <time>2019-02-25T14:26:52.000Z</time>
      </trkpt>
      <trkpt lat="49.49642" lon="3.66837">
        <ele>203.27</ele>
        <time>2019-02-25T14:27:02.000Z</time>
      </trkpt>
      <trkpt lat="49.49632" lon="3.66842">
        <ele>202.65</ele>
        <time>2019-02-25T14:27:12.000Z</time>
      </trkpt>
      <trkpt lat="49.49624" lon="3.66851">
        <ele>201.96</ele>
        <time>2019-02-25T14:27:22.000Z</time>
      </trkpt>
      <trkpt lat="49.49619" lon="3.6685">
        <ele>201.16</ele>
        <time>2019-02-25T14:27:32.000Z</time>
      </trkpt>
      <trkpt lat="49.49609" lon="3.66847">
        <ele>200.58</ele>
        <time>2019-02-25T14:27:42.000Z</time>
      </trkpt>
      <trkpt lat="49.49598" lon="3.66843">
        <ele>199.96</ele>
        <time>2019-02-25T14:27:52.000Z</time>
      </trkpt>
      <trkpt lat="49.49587" lon="3.66839">
        <ele>199.4</ele>
        <time>2019-02-25T14:28:02.000Z</time>
      </trkpt>
      <trkpt lat="49.49576" lon="3.66833">
        <ele>198.87</ele>
        <time>2019-02-25T14:28:12.000Z</time>
      </trkpt>
      <trkpt lat="49.49566" lon="3.66829">
        <ele>198.32</ele>
        <time>2019-02-25T14:28:22.000Z</time>
      </trkpt>
      <trkpt lat="49.49555" lon="3.66823">
        <ele>197.48</ele>
        <time>2019-02-25T14:28:32.000Z</time>
      </trkpt>
      <trkpt lat="49.49545" lon="3.6682">
        <ele>196.51</ele>
        <time>2019-02-25T14:28:42.000Z</time>
      </trkpt>
      <trkpt lat="49.49536" lon="3.66819">
        <ele>195.94</ele>
        <time>2019-02-25T14:28:52.000Z</time>
      </trkpt>
      <trkpt lat="49.49527" lon="3.66816">
        <ele>196.03</ele>
        <time>2019-02-25T14:29:02.000Z</time>
      </trkpt>
      <trkpt lat="49.49517" lon="3.66808">
        <ele>196.82</ele>
        <time>2019-02-25T14:29:12.000Z</time>
      </trkpt>
      <trkpt lat="49.49507" lon="3.66802">
        <ele>197.74</ele>
        <time>2019-02-25T14:29:22.000Z</time>
      </trkpt>
      <trkpt lat="49.49496" lon="3.66796">
        <ele>198.74</ele>
        <time>2019-02-25T14:29:32.000Z</time>
      </trkpt>
      <trkpt lat="49.49487" lon="3.66792">
        <ele>200.11</ele>
        <time>2019-02-25T14:29:42.000Z</time>
      </trkpt>
      <trkpt lat="49.49478" lon="3.6679">
        <ele>201.03</ele>
        <time>2019-02-25T14:29:52.000Z</time>
      </trkpt>
      <trkpt lat="49.49467" lon="3.66786">
        <ele>201.58</ele>
        <time>2019-02-25T14:30:02.000Z</time>
      </trkpt>
      <trkpt lat="49.49456" lon="3.66783">
        <ele>202.05</ele>
        <time>2019-02-25T14:30:12.000Z</time>
      </trkpt>
      <trkpt lat="49.49446" lon="3.6678">
        <ele>202.43</ele>
        <time>2019-02-25T14:30:22.000Z</time>
      </trkpt>
      <trkpt lat="49.49435" lon="3.66777">
        <ele>202.7</ele>
        <time>2019-02-25T14:30:32.000Z</time>
      </trkpt>
      <trkpt lat="49.49424" lon="3.66774">
        <ele>203.08</ele>
        <time>2019-02-25T14:30:42.000Z</time>
      </trkpt>
      <trkpt lat="49.49413" lon="3.66772">
        <ele>203.45</ele>
        <time>2019-02-25T14:30:52.000Z</time>
      </trkpt>
      <trkpt lat="49.49403" lon="3.66768">
        <ele>203.59</ele>
        <time>2019-02-25T14:31:02.000Z</time>
      </trkpt>
      <trkpt lat="49.49391" lon="3.66764">
        <ele>203.8</ele>
        <time>2019-02-25T14:31:12.000Z</time>
      </trkpt>
      <trkpt lat="49.49381" lon="3.6676">
        <ele>203.92</ele>
        <time>2019-02-25T14:31:22.000Z</time>
      </trkpt>
      <trkpt lat="49.4937" lon="3.66758">
        <ele>204.36</ele>
        <time>2019-02-25T14:31:32.000Z</time>
      </trkpt>
      <trkpt lat="49.49359" lon="3.66756">
        <ele>204.53</ele>
        <time>2019-02-25T14:31:42.000Z</time>
      </trkpt>
      <trkpt lat="49.4935" lon="3.66751">
        <ele>204.52</ele>
        <time>2019-02-25T14:31:52.000Z</time>
      </trkpt>
      <trkpt lat="49.49349" lon="3.6675">
        <ele>204.47</ele>
        <time>2019-02-25T14:32:02.000Z</time>
      </trkpt>
      <trkpt lat="49.49347" lon="3.66748">
        <ele>204.68</ele>
        <time>2019-02-25T14:32:12.000Z</time>
      </trkpt>
      <trkpt lat="49.49344" lon="3.66736">
        <ele>205</ele>
        <time>2019-02-25T14:32:22.000Z</time>
      </trkpt>
      <trkpt lat="49.49341" lon="3.66717">
        <ele>205</ele>
        <time>2019-02-25T14:32:32.000Z</time>
      </trkpt>
      <trkpt lat="49.49333" lon="3.66696">
        <ele>203.95</ele>
        <time>2019-02-25T14:32:42.000Z</time>
      </trkpt>
      <trkpt lat="49.49328" lon="3.66679">
        <ele>202.22</ele>
        <time>2019-02-25T14:32:52.000Z</time>
      </trkpt>
      <trkpt lat="49.49324" lon="3.66661">
        <ele>200.42</ele>
        <time>2019-02-25T14:33:02.000Z</time>
      </trkpt>
      <trkpt lat="49.49322" lon="3.66642">
        <ele>199.24</ele>
        <time>2019-02-25T14:33:12.000Z</time>
      </trkpt>
      <trkpt lat="49.49319" lon="3.66621">
        <ele>198.54</ele>
        <time>2019-02-25T14:33:22.000Z</time>
      </trkpt>
      <trkpt lat="49.49315" lon="3.666">
        <ele>197.81</ele>
        <time>2019-02-25T14:33:32.000Z</time>
      </trkpt>
      <trkpt lat="49.4931" lon="3.66583">
        <ele>197.32</ele>
        <time>2019-02-25T14:33:42.000Z</time>
      </trkpt>
      <trkpt lat="49.49305" lon="3.66565">
        <ele>196.68</ele>
        <time>2019-02-25T14:33:52.000Z</time>
      </trkpt>
      <trkpt lat="49.49302" lon="3.66548">
        <ele>195.88</ele>
        <time>2019-02-25T14:34:02.000Z</time>
      </trkpt>
      <trkpt lat="49.49299" lon="3.66532">
        <ele>195.1</ele>
        <time>2019-02-25T14:34:12.000Z</time>
      </trkpt>
      <trkpt lat="49.49296" lon="3.66512">
        <ele>194.35</ele>
        <time>2019-02-25T14:34:22.000Z</time>
      </trkpt>
      <trkpt lat="49.49295" lon="3.66496">
        <ele>194.08</ele>
        <time>2019-02-25T14:34:32.000Z</time>
      </trkpt>
      <trkpt lat="49.49291" lon="3.66477">
        <ele>194.43</ele>
        <time>2019-02-25T14:34:42.000Z</time>
      </trkpt>
      <trkpt lat="49.49287" lon="3.66459">
        <ele>194.86</ele>
        <time>2019-02-25T14:34:52.000Z</time>
      </trkpt>
      <trkpt lat="49.49284" lon="3.6644">
        <ele>195.37</ele>
        <time>2019-02-25T14:35:02.000Z</time>
      </trkpt>
      <trkpt lat="49.49281" lon="3.66422">
        <ele>195.78</ele>
        <time>2019-02-25T14:35:12.000Z</time>
      </trkpt>
      <trkpt lat="49.49278" lon="3.66404">
        <ele>195.97</ele>
        <time>2019-02-25T14:35:22.000Z</time>
      </trkpt>
      <trkpt lat="49.49274" lon="3.66386">
        <ele>195.69</ele>
        <time>2019-02-25T14:35:32.000Z</time>
      </trkpt>
      <trkpt lat="49.49269" lon="3.66367">
        <ele>195.1</ele>
        <time>2019-02-25T14:35:42.000Z</time>
      </trkpt>
      <trkpt lat="49.49263" lon="3.66352">
        <ele>194.83</ele>
        <time>2019-02-25T14:35:52.000Z</time>
      </trkpt>
      <trkpt lat="49.49258" lon="3.66337">
        <ele>194.96</ele>
        <time>2019-02-25T14:36:02.000Z</time>
      </trkpt>
      <trkpt lat="49.49253" lon="3.66323">
        <ele>195.17</ele>
        <time>2019-02-25T14:36:12.000Z</time>
      </trkpt>
      <trkpt lat="49.4925" lon="3.66307">
        <ele>195.02</ele>
        <time>2019-02-25T14:36:22.000Z</time>
      </trkpt>
      <trkpt lat="49.49244" lon="3.66286">
        <ele>194.34</ele>
        <time>2019-02-25T14:36:32.000Z</time>
      </trkpt>
      <trkpt lat="49.49237" lon="3.6627">
        <ele>193.74</ele>
        <time>2019-02-25T14:36:42.000Z</time>
      </trkpt>
      <trkpt lat="49.49232" lon="3.66255">
        <ele>193.59</ele>
        <time>2019-02-25T14:36:52.000Z</time>
      </trkpt>
      <trkpt lat="49.49226" lon="3.66236">
        <ele>192.98</ele>
        <time>2019-02-25T14:37:02.000Z</time>
      </trkpt>
      <trkpt lat="49.49222" lon="3.66221">
        <ele>191.94</ele>
        <time>2019-02-25T14:37:12.000Z</time>
      </trkpt>
      <trkpt lat="49.49218" lon="3.66207">
        <ele>190.93</ele>
        <time>2019-02-25T14:37:22.000Z</time>
      </trkpt>
      <trkpt lat="49.49214" lon="3.66191">
        <ele>189.98</ele>
        <time>2019-02-25T14:37:32.000Z</time>
      </trkpt>
      <trkpt lat="49.49217" lon="3.66184">
        <ele>189.02</ele>
        <time>2019-02-25T14:37:42.000Z</time>
      </trkpt>
      <trkpt lat="49.49224" lon="3.66176">
        <ele>187.97</ele>
        <time>2019-02-25T14:37:52.000Z</time>
      </trkpt>
      <trkpt lat="49.49231" lon="3.66168">
        <ele>186.95</ele>
        <time>2019-02-25T14:38:02.000Z</time>
      </trkpt>
      <trkpt lat="49.4924" lon="3.66159">
        <ele>184.04</ele>
        <time>2019-02-25T14:38:12.000Z</time>
      </trkpt>
      <trkpt lat="49.49246" lon="3.66149">
        <ele>180.77</ele>
        <time>2019-02-25T14:38:22.000Z</time>
      </trkpt>
      <trkpt lat="49.49253" lon="3.66141">
        <ele>178.27</ele>
        <time>2019-02-25T14:38:32.000Z</time>
      </trkpt>
      <trkpt lat="49.49261" lon="3.66133">
        <ele>176.41</ele>
        <time>2019-02-25T14:38:42.000Z</time>
      </trkpt>
      <trkpt lat="49.49271" lon="3.66125">
        <ele>175.9</ele>
        <time>2019-02-25T14:38:52.000Z</time>
      </trkpt>
      <trkpt lat="49.4928" lon="3.66117">
        <ele>176.57</ele>
        <time>2019-02-25T14:39:02.000Z</time>
      </trkpt>
      <trkpt lat="49.49288" lon="3.6611">
        <ele>177.63</ele>
        <time>2019-02-25T14:39:12.000Z</time>
      </trkpt>
      <trkpt lat="49.49296" lon="3.66102">
        <ele>178.54</ele>
        <time>2019-02-25T14:39:22.000Z</time>
      </trkpt>
      <trkpt lat="49.49305" lon="3.66096">
        <ele>180.36</ele>
        <time>2019-02-25T14:39:32.000Z</time>
      </trkpt>
      <trkpt lat="49.49315" lon="3.66089">
        <ele>182.07</ele>
        <time>2019-02-25T14:39:42.000Z</time>
      </trkpt>
      <trkpt lat="49.49321" lon="3.66084">
        <ele>183.42</ele>
        <time>2019-02-25T14:39:52.000Z</time>
      </trkpt>
      <trkpt lat="49.49329" lon="3.66077">
        <ele>184.69</ele>
        <time>2019-02-25T14:40:02.000Z</time>
      </trkpt>
      <trkpt lat="49.4934" lon="3.66068">
        <ele>186.38</ele>
        <time>2019-02-25T14:40:12.000Z</time>
      </trkpt>
      <trkpt lat="49.49348" lon="3.66059">
        <ele>187.74</ele>
        <time>2019-02-25T14:40:22.000Z</time>
      </trkpt>
      <trkpt lat="49.49357" lon="3.6605">
        <ele>188.64</ele>
        <time>2019-02-25T14:40:32.000Z</time>
      </trkpt>
      <trkpt lat="49.49366" lon="3.66041">
        <ele>189.84</ele>
        <time>2019-02-25T14:40:42.000Z</time>
      </trkpt>
      <trkpt lat="49.49377" lon="3.66032">
        <ele>191.32</ele>
        <time>2019-02-25T14:40:52.000Z</time>
      </trkpt>
      <trkpt lat="49.49388" lon="3.66023">
        <ele>192.46</ele>
        <time>2019-02-25T14:41:02.000Z</time>
      </trkpt>
      <trkpt lat="49.49395" lon="3.66017">
        <ele>193.07</ele>
        <time>2019-02-25T14:41:12.000Z</time>
      </trkpt>
      <trkpt lat="49.49405" lon="3.66007">
        <ele>193.54</ele>
        <time>2019-02-25T14:41:22.000Z</time>
      </trkpt>
      <trkpt lat="49.49414" lon="3.65998">
        <ele>193.93</ele>
        <time>2019-02-25T14:41:32.000Z</time>
      </trkpt>
      <trkpt lat="49.49426" lon="3.65991">
        <ele>194.19</ele>
        <time>2019-02-25T14:41:42.000Z</time>
      </trkpt>
      <trkpt lat="49.49436" lon="3.65985">
        <ele>194.6</ele>
        <time>2019-02-25T14:41:52.000Z</time>
      </trkpt>
      <trkpt lat="49.49447" lon="3.65977">
        <ele>195.34</ele>
        <time>2019-02-25T14:42:02.000Z</time>
      </trkpt>
      <trkpt lat="49.49457" lon="3.6597">
        <ele>195.95</ele>
        <time>2019-02-25T14:42:12.000Z</time>
      </trkpt>
      <trkpt lat="49.49467" lon="3.65962">
        <ele>195.97</ele>
        <time>2019-02-25T14:42:22.000Z</time>
      </trkpt>
      <trkpt lat="49.49476" lon="3.65956">
        <ele>195.72</ele>
        <time>2019-02-25T14:42:32.000Z</time>
      </trkpt>
      <trkpt lat="49.49487" lon="3.65948">
        <ele>195.73</ele>
        <time>2019-02-25T14:42:42.000Z</time>
      </trkpt>
      <trkpt lat="49.49497" lon="3.65941">
        <ele>195.57</ele>
        <time>2019-02-25T14:42:52.000Z</time>
      </trkpt>
      <trkpt lat="49.49507" lon="3.65933">
        <ele>195.79</ele>
        <time>2019-02-25T14:43:02.000Z</time>
      </trkpt>
      <trkpt lat="49.49521" lon="3.65926">
        <ele>196.72</ele>
        <time>2019-02-25T14:43:12.000Z</time>
      </trkpt>
      <trkpt lat="49.49533" lon="3.65921">
        <ele>196.97</ele>
        <time>2019-02-25T14:43:22.000Z</time>
      </trkpt>
      <trkpt lat="49.49544" lon="3.65915">
        <ele>196.43</ele>
        <time>2019-02-25T14:43:32.000Z</time>
      </trkpt>
      <trkpt lat="49.49556" lon="3.65908">
        <ele>196.18</ele>
        <time>2019-02-25T14:43:42.000Z</time>
      </trkpt>
      <trkpt lat="49.49567" lon="3.65903">
        <ele>196.32</ele>
        <time>2019-02-25T14:43:52.000Z</time>
      </trkpt>
      <trkpt lat="49.49576" lon="3.65896">
        <ele>196.75</ele>
        <time>2019-02-25T14:44:02.000Z</time>
      </trkpt>
      <trkpt lat="49.4958" lon="3.65892">
        <ele>196.81</ele>
        <time>2019-02-25T14:44:12.000Z</time>
      </trkpt>
      <trkpt lat="49.4959" lon="3.65888">
        <ele>196.64</ele>
        <time>2019-02-25T14:44:22.000Z</time>
      </trkpt>
      <trkpt lat="49.49599" lon="3.65879">
        <ele>196.71</ele>
        <time>2019-02-25T14:44:32.000Z</time>
      </trkpt>
      <trkpt lat="49.4961" lon="3.65873">
        <ele>197.09</ele>
        <time>2019-02-25T14:44:42.000Z</time>
      </trkpt>
      <trkpt lat="49.49621" lon="3.65871">
        <ele>197.13</ele>
        <time>2019-02-25T14:44:52.000Z</time>
      </trkpt>
      <trkpt lat="49.49632" lon="3.6587">
        <ele>196.94</ele>
        <time>2019-02-25T14:45:02.000Z</time>
      </trkpt>
      <trkpt lat="49.49642" lon="3.65863">
        <ele>196.39</ele>
        <time>2019-02-25T14:45:12.000Z</time>
      </trkpt>
      <trkpt lat="49.49652" lon="3.65856">
        <ele>195.8</ele>
        <time>2019-02-25T14:45:22.000Z</time>
      </trkpt>
      <trkpt lat="49.49663" lon="3.65847">
        <ele>194.9</ele>
        <time>2019-02-25T14:45:32.000Z</time>
      </trkpt>
      <trkpt lat="49.49674" lon="3.65839">
        <ele>194.05</ele>
        <time>2019-02-25T14:45:42.000Z</time>
      </trkpt>
      <trkpt lat="49.49684" lon="3.65831">
        <ele>193.95</ele>
        <time>2019-02-25T14:45:52.000Z</time>
      </trkpt>
      <trkpt lat="49.49695" lon="3.65823">
        <ele>194.25</ele>
        <time>2019-02-25T14:46:02.000Z</time>
      </trkpt>
      <trkpt lat="49.49707" lon="3.65818">
        <ele>194.74</ele>
        <time>2019-02-25T14:46:12.000Z</time>
      </trkpt>
      <trkpt lat="49.49718" lon="3.65814">
        <ele>194.97</ele>
        <time>2019-02-25T14:46:22.000Z</time>
      </trkpt>
      <trkpt lat="49.49727" lon="3.65809">
        <ele>194.77</ele>
        <time>2019-02-25T14:46:32.000Z</time>
      </trkpt>
      <trkpt lat="49.49738" lon="3.65805">
        <ele>194.37</ele>
        <time>2019-02-25T14:46:42.000Z</time>
      </trkpt>
      <trkpt lat="49.49748" lon="3.65802">
        <ele>193.93</ele>
        <time>2019-02-25T14:46:52.000Z</time>
      </trkpt>
      <trkpt lat="49.49758" lon="3.65798">
        <ele>193.41</ele>
        <time>2019-02-25T14:47:02.000Z</time>
      </trkpt>
      <trkpt lat="49.49771" lon="3.65796">
        <ele>192.88</ele>
        <time>2019-02-25T14:47:12.000Z</time>
      </trkpt>
      <trkpt lat="49.49781" lon="3.65794">
        <ele>192.74</ele>
        <time>2019-02-25T14:47:22.000Z</time>
      </trkpt>
      <trkpt lat="49.49792" lon="3.65791">
        <ele>192.14</ele>
        <time>2019-02-25T14:47:32.000Z</time>
      </trkpt>
      <trkpt lat="49.49803" lon="3.65788">
        <ele>191.5</ele>
        <time>2019-02-25T14:47:42.000Z</time>
      </trkpt>
      <trkpt lat="49.49815" lon="3.65784">
        <ele>190.85</ele>
        <time>2019-02-25T14:47:52.000Z</time>
      </trkpt>
      <trkpt lat="49.49826" lon="3.65781">
        <ele>190.04</ele>
        <time>2019-02-25T14:48:02.000Z</time>
      </trkpt>
      <trkpt lat="49.49835" lon="3.65774">
        <ele>189.08</ele>
        <time>2019-02-25T14:48:11.999Z</time>
      </trkpt>
      <trkpt lat="49.49841" lon="3.65771">
        <ele>188.22</ele>
        <time>2019-02-25T14:48:21.999Z</time>
      </trkpt>
      <trkpt lat="49.49851" lon="3.6577">
        <ele>187.72</ele>
        <time>2019-02-25T14:48:31.999Z</time>
      </trkpt>
      <trkpt lat="49.49865" lon="3.65768">
        <ele>187.72</ele>
        <time>2019-02-25T14:48:41.999Z</time>
      </trkpt>
      <trkpt lat="49.4988" lon="3.65768">
        <ele>188.06</ele>
        <time>2019-02-25T14:48:51.999Z</time>
      </trkpt>
      <trkpt lat="49.49892" lon="3.65769">
        <ele>188.93</ele>
        <time>2019-02-25T14:49:01.999Z</time>
      </trkpt>
      <trkpt lat="49.49902" lon="3.65765">
        <ele>189.88</ele>
        <time>2019-02-25T14:49:11.999Z</time>
      </trkpt>
      <trkpt lat="49.49912" lon="3.65761">
        <ele>190.32</ele>
        <time>2019-02-25T14:49:21.999Z</time>
      </trkpt>
      <trkpt lat="49.49924" lon="3.65757">
        <ele>189.34</ele>
        <time>2019-02-25T14:49:31.999Z</time>
      </trkpt>
      <trkpt lat="49.49933" lon="3.65751">
        <ele>188.68</ele>
        <time>2019-02-25T14:49:41.999Z</time>
      </trkpt>
      <trkpt lat="49.49943" lon="3.65746">
        <ele>188.2</ele>
        <time>2019-02-25T14:49:51.999Z</time>
      </trkpt>
      <trkpt lat="49.49957" lon="3.65746">
        <ele>187.4</ele>
        <time>2019-02-25T14:50:01.999Z</time>
      </trkpt>
      <trkpt lat="49.49967" lon="3.65742">
        <ele>186.53</ele>
        <time>2019-02-25T14:50:11.999Z</time>
      </trkpt>
      <trkpt lat="49.49977" lon="3.65741">
        <ele>185.23</ele>
        <time>2019-02-25T14:50:21.999Z</time>
      </trkpt>
      <trkpt lat="49.49985" lon="3.65747">
        <ele>185.09</ele>
        <time>2019-02-25T14:50:31.999Z</time>
      </trkpt>
      <trkpt lat="49.49993" lon="3.65743">
        <ele>185.51</ele>
        <time>2019-02-25T14:50:41.999Z</time>
      </trkpt>
      <trkpt lat="49.49999" lon="3.65742">
        <ele>185.9</ele>
        <time>2019-02-25T14:50:51.999Z</time>
      </trkpt>
      <trkpt lat="49.5" lon="3.65741">
        <ele>186.02</ele>
        <time>2019-02-25T14:51:17.999Z</time>
      </trkpt>
      <trkpt lat="49.5" lon="3.65742">
        <ele>186.05</ele>
        <time>2019-02-25T14:51:33.999Z</time>
      </trkpt>
      <trkpt lat="49.50002" lon="3.65742">
        <ele>189.74</ele>
        <time>2019-02-25T14:52:17.999Z</time>
      </trkpt>
      <trkpt lat="49.50001" lon="3.6574">
        <ele>190.26</ele>
        <time>2019-02-25T14:52:27.999Z</time>
      </trkpt>
      <trkpt lat="49.49999" lon="3.65743">
        <ele>190.5</ele>
        <time>2019-02-25T14:52:37.999Z</time>
      </trkpt>
      <trkpt lat="49.50002" lon="3.65741">
        <ele>191.3</ele>
        <time>2019-02-25T14:52:47.999Z</time>
      </trkpt>
      <trkpt lat="49.50005" lon="3.65745">
        <ele>191.86</ele>
        <time>2019-02-25T14:52:57.999Z</time>
      </trkpt>
      <trkpt lat="49.50004" lon="3.65741">
        <ele>191.54</ele>
        <time>2019-02-25T14:53:07.999Z</time>
      </trkpt>
      <trkpt lat="49.50004" lon="3.65738">
        <ele>191.33</ele>
        <time>2019-02-25T14:53:17.999Z</time>
      </trkpt>
      <trkpt lat="49.50002" lon="3.65738">
        <ele>191.16</ele>
        <time>2019-02-25T14:53:27.999Z</time>
      </trkpt>
      <trkpt lat="49.50004" lon="3.65737">
        <ele>191.39</ele>
        <time>2019-02-25T14:54:09.999Z</time>
      </trkpt>
      <trkpt lat="49.50004" lon="3.65736">
        <ele>192.13</ele>
        <time>2019-02-25T14:54:58.999Z</time>
      </trkpt>
      <trkpt lat="49.50005" lon="3.65741">
        <ele>191.83</ele>
        <time>2019-02-25T14:55:08.999Z</time>
      </trkpt>
      <trkpt lat="49.50005" lon="3.65739">
        <ele>192.99</ele>
        <time>2019-02-25T14:56:03.999Z</time>
      </trkpt>
      <trkpt lat="49.50007" lon="3.6574">
        <ele>193.43</ele>
        <time>2019-02-25T14:56:13.999Z</time>
      </trkpt>
      <trkpt lat="49.50006" lon="3.65741">
        <ele>193.21</ele>
        <time>2019-02-25T14:56:28.999Z</time>
      </trkpt>
      <trkpt lat="49.50007" lon="3.65738">
        <ele>192.93</ele>
        <time>2019-02-25T14:56:38.999Z</time>
      </trkpt>
      <trkpt lat="49.50013" lon="3.65737">
        <ele>192.96</ele>
        <time>2019-02-25T14:56:48.999Z</time>
      </trkpt>
      <trkpt lat="49.50019" lon="3.65735">
        <ele>192.53</ele>
        <time>2019-02-25T14:56:58.999Z</time>
      </trkpt>
      <trkpt lat="49.5003" lon="3.65735">
        <ele>191.92</ele>
        <time>2019-02-25T14:57:08.999Z</time>
      </trkpt>
      <trkpt lat="49.50039" lon="3.65733">
        <ele>191.23</ele>
        <time>2019-02-25T14:57:18.999Z</time>
      </trkpt>
      <trkpt lat="49.50051" lon="3.6573">
        <ele>190.61</ele>
        <time>2019-02-25T14:57:28.999Z</time>
      </trkpt>
      <trkpt lat="49.50066" lon="3.65723">
        <ele>188.42</ele>
        <time>2019-02-25T14:57:38.999Z</time>
      </trkpt>
      <trkpt lat="49.50075" lon="3.65716">
        <ele>184.86</ele>
        <time>2019-02-25T14:57:48.999Z</time>
      </trkpt>
      <trkpt lat="49.50083" lon="3.65711">
        <ele>181</ele>
        <time>2019-02-25T14:57:58.999Z</time>
      </trkpt>
      <trkpt lat="49.50093" lon="3.65707">
        <ele>176.93</ele>
        <time>2019-02-25T14:58:08.999Z</time>
      </trkpt>
      <trkpt lat="49.50105" lon="3.65705">
        <ele>172.99</ele>
        <time>2019-02-25T14:58:18.999Z</time>
      </trkpt>
      <trkpt lat="49.50117" lon="3.65705">
        <ele>170.38</ele>
        <time>2019-02-25T14:58:28.999Z</time>
      </trkpt>
      <trkpt lat="49.5013" lon="3.65703">
        <ele>167.87</ele>
        <time>2019-02-25T14:58:38.999Z</time>
      </trkpt>
      <trkpt lat="49.50141" lon="3.65702">
        <ele>165.9</ele>
        <time>2019-02-25T14:58:48.999Z</time>
      </trkpt>
      <trkpt lat="49.50152" lon="3.65701">
        <ele>164.43</ele>
        <time>2019-02-25T14:58:58.999Z</time>
      </trkpt>
      <trkpt lat="49.50163" lon="3.657">
        <ele>163.55</ele>
        <time>2019-02-25T14:59:08.999Z</time>
      </trkpt>
      <trkpt lat="49.50172" lon="3.65701">
        <ele>162.96</ele>
        <time>2019-02-25T14:59:18.999Z</time>
      </trkpt>
      <trkpt lat="49.50184" lon="3.65699">
        <ele>162.52</ele>
        <time>2019-02-25T14:59:28.999Z</time>
      </trkpt>
      <trkpt lat="49.50196" lon="3.65694">
        <ele>161.94</ele>
        <time>2019-02-25T14:59:38.999Z</time>
      </trkpt>
      <trkpt lat="49.50203" lon="3.65686">
        <ele>160.96</ele>
        <time>2019-02-25T14:59:48.999Z</time>
      </trkpt>
      <trkpt lat="49.50212" lon="3.65678">
        <ele>159.7</ele>
        <time>2019-02-25T14:59:58.999Z</time>
      </trkpt>
      <trkpt lat="49.50221" lon="3.65668">
        <ele>158.03</ele>
        <time>2019-02-25T15:00:08.999Z</time>
      </trkpt>
      <trkpt lat="49.50233" lon="3.65659">
        <ele>156.49</ele>
        <time>2019-02-25T15:00:18.999Z</time>
      </trkpt>
      <trkpt lat="49.5024" lon="3.65651">
        <ele>156.57</ele>
        <time>2019-02-25T15:00:28.999Z</time>
      </trkpt>
      <trkpt lat="49.50249" lon="3.65643">
        <ele>156.23</ele>
        <time>2019-02-25T15:00:38.999Z</time>
      </trkpt>
      <trkpt lat="49.50261" lon="3.65636">
        <ele>155.64</ele>
        <time>2019-02-25T15:00:48.999Z</time>
      </trkpt>
      <trkpt lat="49.50269" lon="3.65629">
        <ele>155.05</ele>
        <time>2019-02-25T15:00:58.999Z</time>
      </trkpt>
      <trkpt lat="49.50277" lon="3.65628">
        <ele>156.73</ele>
        <time>2019-02-25T15:01:08.999Z</time>
      </trkpt>
      <trkpt lat="49.50286" lon="3.65631">
        <ele>160.5</ele>
        <time>2019-02-25T15:01:18.999Z</time>
      </trkpt>
      <trkpt lat="49.50296" lon="3.6563">
        <ele>164.32</ele>
        <time>2019-02-25T15:01:28.999Z</time>
      </trkpt>
      <trkpt lat="49.50306" lon="3.65624">
        <ele>167.83</ele>
        <time>2019-02-25T15:01:38.999Z</time>
      </trkpt>
      <trkpt lat="49.50319" lon="3.65616">
        <ele>170.02</ele>
        <time>2019-02-25T15:01:48.999Z</time>
      </trkpt>
      <trkpt lat="49.5033" lon="3.6561">
        <ele>170.83</ele>
        <time>2019-02-25T15:01:58.999Z</time>
      </trkpt>
      <trkpt lat="49.50338" lon="3.65603">
        <ele>171.79</ele>
        <time>2019-02-25T15:02:08.999Z</time>
      </trkpt>
      <trkpt lat="49.50347" lon="3.656">
        <ele>172.79</ele>
        <time>2019-02-25T15:02:18.999Z</time>
      </trkpt>
      <trkpt lat="49.5036" lon="3.65594">
        <ele>173.36</ele>
        <time>2019-02-25T15:02:28.999Z</time>
      </trkpt>
      <trkpt lat="49.50367" lon="3.6559">
        <ele>174.59</ele>
        <time>2019-02-25T15:02:38.999Z</time>
      </trkpt>
      <trkpt lat="49.50375" lon="3.65581">
        <ele>176.47</ele>
        <time>2019-02-25T15:02:48.999Z</time>
      </trkpt>
      <trkpt lat="49.50384" lon="3.65575">
        <ele>178.02</ele>
        <time>2019-02-25T15:02:58.999Z</time>
      </trkpt>
      <trkpt lat="49.50399" lon="3.65568">
        <ele>178.97</ele>
        <time>2019-02-25T15:03:08.999Z</time>
      </trkpt>
      <trkpt lat="49.5041" lon="3.65564">
        <ele>179.27</ele>
        <time>2019-02-25T15:03:18.999Z</time>
      </trkpt>
      <trkpt lat="49.5042" lon="3.65559">
        <ele>178.86</ele>
        <time>2019-02-25T15:03:28.999Z</time>
      </trkpt>
      <trkpt lat="49.5043" lon="3.65553">
        <ele>178.82</ele>
        <time>2019-02-25T15:03:38.999Z</time>
      </trkpt>
      <trkpt lat="49.5044" lon="3.6555">
        <ele>178.97</ele>
        <time>2019-02-25T15:03:48.999Z</time>
      </trkpt>
      <trkpt lat="49.50448" lon="3.65544">
        <ele>177.71</ele>
        <time>2019-02-25T15:03:58.999Z</time>
      </trkpt>
      <trkpt lat="49.50456" lon="3.65527">
        <ele>175.53</ele>
        <time>2019-02-25T15:04:08.999Z</time>
      </trkpt>
      <trkpt lat="49.50467" lon="3.6551">
        <ele>173.07</ele>
        <time>2019-02-25T15:04:18.999Z</time>
      </trkpt>
      <trkpt lat="49.50475" lon="3.65501">
        <ele>170.45</ele>
        <time>2019-02-25T15:04:28.999Z</time>
      </trkpt>
      <trkpt lat="49.50484" lon="3.65496">
        <ele>168.71</ele>
        <time>2019-02-25T15:04:38.999Z</time>
      </trkpt>
      <trkpt lat="49.50494" lon="3.65495">
        <ele>168.22</ele>
        <time>2019-02-25T15:04:48.999Z</time>
      </trkpt>
      <trkpt lat="49.50508" lon="3.65496">
        <ele>168.04</ele>
        <time>2019-02-25T15:04:58.999Z</time>
      </trkpt>
      <trkpt lat="49.50521" lon="3.65494">
        <ele>167</ele>
        <time>2019-02-25T15:05:08.999Z</time>
      </trkpt>
      <trkpt lat="49.50535" lon="3.65489">
        <ele>166.65</ele>
        <time>2019-02-25T15:05:18.999Z</time>
      </trkpt>
      <trkpt lat="49.5055" lon="3.65492">
        <ele>165.94</ele>
        <time>2019-02-25T15:05:28.999Z</time>
      </trkpt>
      <trkpt lat="49.50561" lon="3.65495">
        <ele>165.84</ele>
        <time>2019-02-25T15:05:38.999Z</time>
      </trkpt>
      <trkpt lat="49.5057" lon="3.65505">
        <ele>164.57</ele>
        <time>2019-02-25T15:05:48.999Z</time>
      </trkpt>
      <trkpt lat="49.50579" lon="3.65512">
        <ele>162.17</ele>
        <time>2019-02-25T15:05:58.999Z</time>
      </trkpt>
      <trkpt lat="49.50595" lon="3.65517">
        <ele>161.53</ele>
        <time>2019-02-25T15:06:08.999Z</time>
      </trkpt>
      <trkpt lat="49.50614" lon="3.65536">
        <ele>163.93</ele>
        <time>2019-02-25T15:06:18.999Z</time>
      </trkpt>
      <trkpt lat="49.50624" lon="3.65548">
        <ele>166.35</ele>
        <time>2019-02-25T15:06:28.999Z</time>
      </trkpt>
      <trkpt lat="49.50634" lon="3.65553">
        <ele>168.39</ele>
        <time>2019-02-25T15:06:38.999Z</time>
      </trkpt>
      <trkpt lat="49.50646" lon="3.65551">
        <ele>168.85</ele>
        <time>2019-02-25T15:06:48.999Z</time>
      </trkpt>
      <trkpt lat="49.50656" lon="3.65555">
        <ele>168.28</ele>
        <time>2019-02-25T15:06:58.999Z</time>
      </trkpt>
      <trkpt lat="49.50666" lon="3.65559">
        <ele>167.2</ele>
        <time>2019-02-25T15:07:08.999Z</time>
      </trkpt>
      <trkpt lat="49.50673" lon="3.65559">
        <ele>164.91</ele>
        <time>2019-02-25T15:07:18.999Z</time>
      </trkpt>
      <trkpt lat="49.50685" lon="3.65556">
        <ele>163.24</ele>
        <time>2019-02-25T15:07:28.999Z</time>
      </trkpt>
      <trkpt lat="49.50697" lon="3.65559">
        <ele>162.35</ele>
        <time>2019-02-25T15:07:38.999Z</time>
      </trkpt>
      <trkpt lat="49.5071" lon="3.65561">
        <ele>162.17</ele>
        <time>2019-02-25T15:07:48.999Z</time>
      </trkpt>
      <trkpt lat="49.50721" lon="3.65567">
        <ele>161.89</ele>
        <time>2019-02-25T15:07:58.999Z</time>
      </trkpt>
      <trkpt lat="49.50731" lon="3.65572">
        <ele>161.23</ele>
        <time>2019-02-25T15:08:08.999Z</time>
      </trkpt>
      <trkpt lat="49.50739" lon="3.65577">
        <ele>160.08</ele>
        <time>2019-02-25T15:08:18.999Z</time>
      </trkpt>
      <trkpt lat="49.50747" lon="3.6558">
        <ele>158.24</ele>
        <time>2019-02-25T15:08:28.999Z</time>
      </trkpt>
      <trkpt lat="49.50755" lon="3.65589">
        <ele>156.01</ele>
        <time>2019-02-25T15:08:38.999Z</time>
      </trkpt>
      <trkpt lat="49.50764" lon="3.65594">
        <ele>153.94</ele>
        <time>2019-02-25T15:08:48.999Z</time>
      </trkpt>
      <trkpt lat="49.50778" lon="3.65594">
        <ele>152.84</ele>
        <time>2019-02-25T15:08:58.999Z</time>
      </trkpt>
      <trkpt lat="49.5079" lon="3.65599">
        <ele>152.36</ele>
        <time>2019-02-25T15:09:08.999Z</time>
      </trkpt>
      <trkpt lat="49.50801" lon="3.65606">
        <ele>152.07</ele>
        <time>2019-02-25T15:09:18.999Z</time>
      </trkpt>
      <trkpt lat="49.50811" lon="3.65618">
        <ele>151.21</ele>
        <time>2019-02-25T15:09:28.999Z</time>
      </trkpt>
      <trkpt lat="49.50821" lon="3.65629">
        <ele>150.29</ele>
        <time>2019-02-25T15:09:38.999Z</time>
      </trkpt>
      <trkpt lat="49.50829" lon="3.65636">
        <ele>148.81</ele>
        <time>2019-02-25T15:09:48.999Z</time>
      </trkpt>
      <trkpt lat="49.50836" lon="3.65643">
        <ele>147.56</ele>
        <time>2019-02-25T15:09:58.999Z</time>
      </trkpt>
      <trkpt lat="49.50846" lon="3.6565">
        <ele>146.56</ele>
        <time>2019-02-25T15:10:08.999Z</time>
      </trkpt>
      <trkpt lat="49.50859" lon="3.6566">
        <ele>145.96</ele>
        <time>2019-02-25T15:10:18.999Z</time>
      </trkpt>
      <trkpt lat="49.5087" lon="3.65668">
        <ele>146.65</ele>
        <time>2019-02-25T15:10:28.999Z</time>
      </trkpt>
      <trkpt lat="49.5088" lon="3.65677">
        <ele>147.25</ele>
        <time>2019-02-25T15:10:38.999Z</time>
      </trkpt>
      <trkpt lat="49.50891" lon="3.65682">
        <ele>146.83</ele>
        <time>2019-02-25T15:10:48.999Z</time>
      </trkpt>
      <trkpt lat="49.50906" lon="3.65683">
        <ele>146.83</ele>
        <time>2019-02-25T15:10:58.999Z</time>
      </trkpt>
      <trkpt lat="49.50921" lon="3.65685">
        <ele>146.91</ele>
        <time>2019-02-25T15:11:08.999Z</time>
      </trkpt>
      <trkpt lat="49.50932" lon="3.65684">
        <ele>148.04</ele>
        <time>2019-02-25T15:11:18.999Z</time>
      </trkpt>
      <trkpt lat="49.50946" lon="3.65683">
        <ele>149.29</ele>
        <time>2019-02-25T15:11:28.999Z</time>
      </trkpt>
      <trkpt lat="49.50959" lon="3.65683">
        <ele>149.68</ele>
        <time>2019-02-25T15:11:38.999Z</time>
      </trkpt>
      <trkpt lat="49.50972" lon="3.65685">
        <ele>149.09</ele>
        <time>2019-02-25T15:11:48.999Z</time>
      </trkpt>
      <trkpt lat="49.50981" lon="3.65691">
        <ele>147.57</ele>
        <time>2019-02-25T15:11:58.999Z</time>
      </trkpt>
      <trkpt lat="49.5099" lon="3.65692">
        <ele>146.48</ele>
        <time>2019-02-25T15:12:08.999Z</time>
      </trkpt>
      <trkpt lat="49.51001" lon="3.65697">
        <ele>145.95</ele>
        <time>2019-02-25T15:12:18.999Z</time>
      </trkpt>
      <trkpt lat="49.5101" lon="3.657">
        <ele>144.96</ele>
        <time>2019-02-25T15:12:28.999Z</time>
      </trkpt>
      <trkpt lat="49.51021" lon="3.65707">
        <ele>144.95</ele>
        <time>2019-02-25T15:12:38.999Z</time>
      </trkpt>
      <trkpt lat="49.51036" lon="3.65709">
        <ele>144.72</ele>
        <time>2019-02-25T15:12:48.999Z</time>
      </trkpt>
      <trkpt lat="49.51046" lon="3.65706">
        <ele>144.8</ele>
        <time>2019-02-25T15:12:58.999Z</time>
      </trkpt>
      <trkpt lat="49.51056" lon="3.65707">
        <ele>145.46</ele>
        <time>2019-02-25T15:13:08.999Z</time>
      </trkpt>
      <trkpt lat="49.51067" lon="3.65704">
        <ele>146.17</ele>
        <time>2019-02-25T15:13:18.999Z</time>
      </trkpt>
      <trkpt lat="49.51078" lon="3.65707">
        <ele>145.91</ele>
        <time>2019-02-25T15:13:28.999Z</time>
      </trkpt>
      <trkpt lat="49.51089" lon="3.6571">
        <ele>145.49</ele>
        <time>2019-02-25T15:13:38.999Z</time>
      </trkpt>
      <trkpt lat="49.51099" lon="3.65714">
        <ele>144.19</ele>
        <time>2019-02-25T15:13:48.999Z</time>
      </trkpt>
      <trkpt lat="49.51107" lon="3.65717">
        <ele>142.51</ele>
        <time>2019-02-25T15:13:58.999Z</time>
      </trkpt>
      <trkpt lat="49.51116" lon="3.65721">
        <ele>141.83</ele>
        <time>2019-02-25T15:14:08.999Z</time>
      </trkpt>
      <trkpt lat="49.51128" lon="3.65729">
        <ele>141.58</ele>
        <time>2019-02-25T15:14:18.999Z</time>
      </trkpt>
      <trkpt lat="49.51139" lon="3.65738">
        <ele>142.63</ele>
        <time>2019-02-25T15:14:28.999Z</time>
      </trkpt>
      <trkpt lat="49.51149" lon="3.65742">
        <ele>143.4</ele>
        <time>2019-02-25T15:14:38.999Z</time>
      </trkpt>
      <trkpt lat="49.5116" lon="3.65734">
        <ele>144.22</ele>
        <time>2019-02-25T15:14:48.999Z</time>
      </trkpt>
      <trkpt lat="49.51172" lon="3.65723">
        <ele>145.97</ele>
        <time>2019-02-25T15:14:58.999Z</time>
      </trkpt>
      <trkpt lat="49.51179" lon="3.65719">
        <ele>148.79</ele>
        <time>2019-02-25T15:15:08.999Z</time>
      </trkpt>
      <trkpt lat="49.51192" lon="3.65716">
        <ele>151.87</ele>
        <time>2019-02-25T15:15:18.999Z</time>
      </trkpt>
      <trkpt lat="49.51203" lon="3.65711">
        <ele>153.13</ele>
        <time>2019-02-25T15:15:28.999Z</time>
      </trkpt>
      <trkpt lat="49.51214" lon="3.65704">
        <ele>153.45</ele>
        <time>2019-02-25T15:15:38.999Z</time>
      </trkpt>
      <trkpt lat="49.51224" lon="3.65698">
        <ele>152.7</ele>
        <time>2019-02-25T15:15:48.999Z</time>
      </trkpt>
      <trkpt lat="49.51234" lon="3.65694">
        <ele>151.61</ele>
        <time>2019-02-25T15:15:58.999Z</time>
      </trkpt>
      <trkpt lat="49.51244" lon="3.65688">
        <ele>150.16</ele>
        <time>2019-02-25T15:16:08.999Z</time>
      </trkpt>
      <trkpt lat="49.51257" lon="3.65677">
        <ele>148.32</ele>
        <time>2019-02-25T15:16:18.999Z</time>
      </trkpt>
      <trkpt lat="49.5127" lon="3.65667">
        <ele>145.97</ele>
        <time>2019-02-25T15:16:28.999Z</time>
      </trkpt>
      <trkpt lat="49.51278" lon="3.65661">
        <ele>144.43</ele>
        <time>2019-02-25T15:16:38.999Z</time>
      </trkpt>
      <trkpt lat="49.51281" lon="3.65658">
        <ele>143.63</ele>
        <time>2019-02-25T15:16:48.999Z</time>
      </trkpt>
      <trkpt lat="49.51282" lon="3.65658">
        <ele>146.57</ele>
        <time>2019-02-25T15:17:25.999Z</time>
      </trkpt>
      <trkpt lat="49.51294" lon="3.65674">
        <ele>147.69</ele>
        <time>2019-02-25T15:17:35.999Z</time>
      </trkpt>
      <trkpt lat="49.51296" lon="3.65678">
        <ele>148.38</ele>
        <time>2019-02-25T15:17:45.999Z</time>
      </trkpt>
      <trkpt lat="49.51295" lon="3.65673">
        <ele>148.4</ele>
        <time>2019-02-25T15:17:55.999Z</time>
      </trkpt>
      <trkpt lat="49.51294" lon="3.65673">
        <ele>148.84</ele>
        <time>2019-02-25T15:18:05.999Z</time>
      </trkpt>
      <trkpt lat="49.51294" lon="3.65676">
        <ele>149.98</ele>
        <time>2019-02-25T15:18:28.999Z</time>
      </trkpt>
      <trkpt lat="49.51286" lon="3.6567">
        <ele>151.19</ele>
        <time>2019-02-25T15:18:38.999Z</time>
      </trkpt>
      <trkpt lat="49.51285" lon="3.6567">
        <ele>148.19</ele>
        <time>2019-02-25T15:19:07.999Z</time>
      </trkpt>
      <trkpt lat="49.51299" lon="3.65668">
        <ele>149.38</ele>
        <time>2019-02-25T15:19:17.999Z</time>
      </trkpt>
      <trkpt lat="49.51302" lon="3.6567">
        <ele>157.62</ele>
        <time>2019-02-25T15:19:54.999Z</time>
      </trkpt>
      <trkpt lat="49.51304" lon="3.65677">
        <ele>159.02</ele>
        <time>2019-02-25T15:20:04.999Z</time>
      </trkpt>
      <trkpt lat="49.51303" lon="3.65669">
        <ele>161.16</ele>
        <time>2019-02-25T15:20:14.999Z</time>
      </trkpt>
      <trkpt lat="49.51302" lon="3.65656">
        <ele>162.6</ele>
        <time>2019-02-25T15:20:24.999Z</time>
      </trkpt>
      <trkpt lat="49.51301" lon="3.65638">
        <ele>164.12</ele>
        <time>2019-02-25T15:20:34.999Z</time>
      </trkpt>
      <trkpt lat="49.51301" lon="3.65618">
        <ele>165.64</ele>
        <time>2019-02-25T15:20:44.999Z</time>
      </trkpt>
      <trkpt lat="49.51303" lon="3.65595">
        <ele>166.9</ele>
        <time>2019-02-25T15:20:54.999Z</time>
      </trkpt>
      <trkpt lat="49.51308" lon="3.65575">
        <ele>166.86</ele>
        <time>2019-02-25T15:21:04.999Z</time>
      </trkpt>
      <trkpt lat="49.51312" lon="3.65556">
        <ele>166.69</ele>
        <time>2019-02-25T15:21:14.999Z</time>
      </trkpt>
      <trkpt lat="49.51314" lon="3.65539">
        <ele>165.7</ele>
        <time>2019-02-25T15:21:24.999Z</time>
      </trkpt>
      <trkpt lat="49.51315" lon="3.65521">
        <ele>164.18</ele>
        <time>2019-02-25T15:21:34.999Z</time>
      </trkpt>
      <trkpt lat="49.51313" lon="3.65502">
        <ele>162.9</ele>
        <time>2019-02-25T15:21:44.999Z</time>
      </trkpt>
      <trkpt lat="49.51309" lon="3.65496">
        <ele>161.59</ele>
        <time>2019-02-25T15:21:54.999Z</time>
      </trkpt>
      <trkpt lat="49.51307" lon="3.65486">
        <ele>160.46</ele>
        <time>2019-02-25T15:22:04.999Z</time>
      </trkpt>
      <trkpt lat="49.51307" lon="3.65471">
        <ele>159.78</ele>
        <time>2019-02-25T15:22:14.999Z</time>
      </trkpt>
      <trkpt lat="49.51308" lon="3.65469">
        <ele>158.96</ele>
        <time>2019-02-25T15:22:24.999Z</time>
      </trkpt>
      <trkpt lat="49.51312" lon="3.65468">
        <ele>157.14</ele>
        <time>2019-02-25T15:22:34.999Z</time>
      </trkpt>
      <trkpt lat="49.51314" lon="3.65464">
        <ele>155.37</ele>
        <time>2019-02-25T15:22:44.999Z</time>
      </trkpt>
      <trkpt lat="49.51313" lon="3.65466">
        <ele>154.3</ele>
        <time>2019-02-25T15:22:54.999Z</time>
      </trkpt>
      <trkpt lat="49.51312" lon="3.65467">
        <ele>152.62</ele>
        <time>2019-02-25T15:23:17.999Z</time>
      </trkpt>
      <trkpt lat="49.5131" lon="3.65465">
        <ele>151.31</ele>
        <time>2019-02-25T15:23:27.999Z</time>
      </trkpt>
      <trkpt lat="49.51311" lon="3.65461">
        <ele>150.39</ele>
        <time>2019-02-25T15:23:37.999Z</time>
      </trkpt>
      <trkpt lat="49.51311" lon="3.65459">
        <ele>150.14</ele>
        <time>2019-02-25T15:23:47.999Z</time>
      </trkpt>
      <trkpt lat="49.51311" lon="3.65457">
        <ele>150.98</ele>
        <time>2019-02-25T15:24:02.999Z</time>
      </trkpt>
      <trkpt lat="49.51315" lon="3.65449">
        <ele>152.71</ele>
        <time>2019-02-25T15:24:12.999Z</time>
      </trkpt>
      <trkpt lat="49.51318" lon="3.65446">
        <ele>153.18</ele>
        <time>2019-02-25T15:24:22.999Z</time>
      </trkpt>
      <trkpt lat="49.51324" lon="3.65449">
        <ele>153.66</ele>
        <time>2019-02-25T15:24:32.999Z</time>
      </trkpt>
      <trkpt lat="49.51326" lon="3.65456">
        <ele>153.51</ele>
        <time>2019-02-25T15:24:42.999Z</time>
      </trkpt>
      <trkpt lat="49.51326" lon="3.6546">
        <ele>152.06</ele>
        <time>2019-02-25T15:24:52.999Z</time>
      </trkpt>
      <trkpt lat="49.51325" lon="3.65461">
        <ele>151.49</ele>
        <time>2019-02-25T15:25:02.999Z</time>
      </trkpt>
      <trkpt lat="49.51324" lon="3.65466">
        <ele>149.04</ele>
        <time>2019-02-25T15:25:12.999Z</time>
      </trkpt>
      <trkpt lat="49.51321" lon="3.65467">
        <ele>147.35</ele>
        <time>2019-02-25T15:25:22.999Z</time>
      </trkpt>
      <trkpt lat="49.51319" lon="3.65477">
        <ele>145.31</ele>
        <time>2019-02-25T15:25:32.999Z</time>
      </trkpt>
      <trkpt lat="49.5132" lon="3.65483">
        <ele>143.63</ele>
        <time>2019-02-25T15:25:42.999Z</time>
      </trkpt>
      <trkpt lat="49.51322" lon="3.65483">
        <ele>142.39</ele>
        <time>2019-02-25T15:25:52.999Z</time>
      </trkpt>
      <trkpt lat="49.51326" lon="3.65481">
        <ele>140.78</ele>
        <time>2019-02-25T15:26:02.999Z</time>
      </trkpt>
      <trkpt lat="49.51329" lon="3.6548">
        <ele>139.47</ele>
        <time>2019-02-25T15:26:12.999Z</time>
      </trkpt>
      <trkpt lat="49.51331" lon="3.65481">
        <ele>138.73</ele>
        <time>2019-02-25T15:26:22.999Z</time>
      </trkpt>
      <trkpt lat="49.51344" lon="3.65471">
        <ele>138.55</ele>
        <time>2019-02-25T15:26:32.999Z</time>
      </trkpt>
      <trkpt lat="49.51354" lon="3.65465">
        <ele>138.5</ele>
        <time>2019-02-25T15:26:42.999Z</time>
      </trkpt>
      <trkpt lat="49.51362" lon="3.65461">
        <ele>138.62</ele>
        <time>2019-02-25T15:26:52.999Z</time>
      </trkpt>
      <trkpt lat="49.51367" lon="3.65465">
        <ele>139.03</ele>
        <time>2019-02-25T15:27:02.999Z</time>
      </trkpt>
      <trkpt lat="49.51366" lon="3.65467">
        <ele>138.52</ele>
        <time>2019-02-25T15:27:12.999Z</time>
      </trkpt>
      <trkpt lat="49.51366" lon="3.65465">
        <ele>137.65</ele>
        <time>2019-02-25T15:27:22.999Z</time>
      </trkpt>
      <trkpt lat="49.51368" lon="3.65464">
        <ele>135.37</ele>
        <time>2019-02-25T15:27:32.999Z</time>
      </trkpt>
      <trkpt lat="49.51369" lon="3.6545">
        <ele>133.26</ele>
        <time>2019-02-25T15:27:42.999Z</time>
      </trkpt>
      <trkpt lat="49.51374" lon="3.65442">
        <ele>132.31</ele>
        <time>2019-02-25T15:27:52.999Z</time>
      </trkpt>
      <trkpt lat="49.51387" lon="3.65444">
        <ele>131.91</ele>
        <time>2019-02-25T15:28:02.999Z</time>
      </trkpt>
      <trkpt lat="49.51404" lon="3.65442">
        <ele>131.61</ele>
        <time>2019-02-25T15:28:12.999Z</time>
      </trkpt>
      <trkpt lat="49.51419" lon="3.65432">
        <ele>131.27</ele>
        <time>2019-02-25T15:28:22.999Z</time>
      </trkpt>
      <trkpt lat="49.51425" lon="3.65431">
        <ele>131.05</ele>
        <time>2019-02-25T15:28:32.999Z</time>
      </trkpt>
      <trkpt lat="49.51426" lon="3.65426">
        <ele>130.81</ele>
        <time>2019-02-25T15:28:42.999Z</time>
      </trkpt>
      <trkpt lat="49.51428" lon="3.65427">
        <ele>130.82</ele>
        <time>2019-02-25T15:29:05.000Z</time>
      </trkpt>
      <trkpt lat="49.51431" lon="3.65424">
        <ele>130.3</ele>
        <time>2019-02-25T15:29:15.000Z</time>
      </trkpt>
      <trkpt lat="49.51433" lon="3.65423">
        <ele>129.45</ele>
        <time>2019-02-25T15:29:25.000Z</time>
      </trkpt>
      <trkpt lat="49.51434" lon="3.6542">
        <ele>128.56</ele>
        <time>2019-02-25T15:29:35.000Z</time>
      </trkpt>
      <trkpt lat="49.51435" lon="3.65416">
        <ele>128.33</ele>
        <time>2019-02-25T15:29:45.000Z</time>
      </trkpt>
      <trkpt lat="49.51438" lon="3.65403">
        <ele>128.13</ele>
        <time>2019-02-25T15:29:55.000Z</time>
      </trkpt>
      <trkpt lat="49.51436" lon="3.65393">
        <ele>128.07</ele>
        <time>2019-02-25T15:30:05.000Z</time>
      </trkpt>
      <trkpt lat="49.51433" lon="3.65383">
        <ele>127.73</ele>
        <time>2019-02-25T15:30:15.000Z</time>
      </trkpt>
      <trkpt lat="49.51434" lon="3.65372">
        <ele>127.97</ele>
        <time>2019-02-25T15:30:25.000Z</time>
      </trkpt>
      <trkpt lat="49.51435" lon="3.65366">
        <ele>128.49</ele>
        <time>2019-02-25T15:30:35.000Z</time>
      </trkpt>
      <trkpt lat="49.51429" lon="3.65351">
        <ele>128.84</ele>
        <time>2019-02-25T15:30:45.000Z</time>
      </trkpt>
      <trkpt lat="49.51431" lon="3.65341">
        <ele>129.22</ele>
        <time>2019-02-25T15:30:55.000Z</time>
      </trkpt>
      <trkpt lat="49.51436" lon="3.65334">
        <ele>129.37</ele>
        <time>2019-02-25T15:31:05.000Z</time>
      </trkpt>
      <trkpt lat="49.51445" lon="3.65325">
        <ele>129.77</ele>
        <time>2019-02-25T15:31:15.000Z</time>
      </trkpt>
      <trkpt lat="49.51452" lon="3.65311">
        <ele>129.59</ele>
        <time>2019-02-25T15:31:25.000Z</time>
      </trkpt>
      <trkpt lat="49.51456" lon="3.65302">
        <ele>129.12</ele>
        <time>2019-02-25T15:31:35.000Z</time>
      </trkpt>
      <trkpt lat="49.51461" lon="3.65297">
        <ele>128.21</ele>
        <time>2019-02-25T15:31:45.000Z</time>
      </trkpt>
      <trkpt lat="49.5147" lon="3.6529">
        <ele>127.18</ele>
        <time>2019-02-25T15:31:55.000Z</time>
      </trkpt>
      <trkpt lat="49.51476" lon="3.65282">
        <ele>126.75</ele>
        <time>2019-02-25T15:32:05.000Z</time>
      </trkpt>
      <trkpt lat="49.51481" lon="3.65281">
        <ele>126.25</ele>
        <time>2019-02-25T15:32:15.000Z</time>
      </trkpt>
      <trkpt lat="49.51484" lon="3.65283">
        <ele>125.76</ele>
        <time>2019-02-25T15:32:25.000Z</time>
      </trkpt>
      <trkpt lat="49.5149" lon="3.65286">
        <ele>125.33</ele>
        <time>2019-02-25T15:32:35.000Z</time>
      </trkpt>
      <trkpt lat="49.51492" lon="3.65282">
        <ele>124.6</ele>
        <time>2019-02-25T15:32:45.000Z</time>
      </trkpt>
      <trkpt lat="49.51502" lon="3.65263">
        <ele>122.66</ele>
        <time>2019-02-25T15:32:55.000Z</time>
      </trkpt>
      <trkpt lat="49.51512" lon="3.65246">
        <ele>120.75</ele>
        <time>2019-02-25T15:33:05.000Z</time>
      </trkpt>
      <trkpt lat="49.5152" lon="3.6522">
        <ele>119.13</ele>
        <time>2019-02-25T15:33:15.000Z</time>
      </trkpt>
      <trkpt lat="49.51524" lon="3.65204">
        <ele>118.01</ele>
        <time>2019-02-25T15:33:25.000Z</time>
      </trkpt>
      <trkpt lat="49.51527" lon="3.65198">
        <ele>116.44</ele>
        <time>2019-02-25T15:33:35.000Z</time>
      </trkpt>
      <trkpt lat="49.51527" lon="3.65197">
        <ele>113.99</ele>
        <time>2019-02-25T15:33:46.000Z</time>
      </trkpt>
      <trkpt lat="49.51535" lon="3.65194">
        <ele>111.63</ele>
        <time>2019-02-25T15:33:56.000Z</time>
      </trkpt>
      <trkpt lat="49.51541" lon="3.65192">
        <ele>109.18</ele>
        <time>2019-02-25T15:34:06.000Z</time>
      </trkpt>
      <trkpt lat="49.51541" lon="3.65195">
        <ele>106.83</ele>
        <time>2019-02-25T15:34:16.000Z</time>
      </trkpt>
      <trkpt lat="49.51548" lon="3.65196">
        <ele>105.63</ele>
        <time>2019-02-25T15:34:26.000Z</time>
      </trkpt>
      <trkpt lat="49.51548" lon="3.65194">
        <ele>104.6</ele>
        <time>2019-02-25T15:34:36.000Z</time>
      </trkpt>
      <trkpt lat="49.51551" lon="3.65194">
        <ele>103.55</ele>
        <time>2019-02-25T15:34:46.000Z</time>
      </trkpt>
      <trkpt lat="49.5155" lon="3.65191">
        <ele>103.28</ele>
        <time>2019-02-25T15:34:56.000Z</time>
      </trkpt>
      <trkpt lat="49.51551" lon="3.65192">
        <ele>100.6</ele>
        <time>2019-02-25T15:35:18.000Z</time>
      </trkpt>
      <trkpt lat="49.51552" lon="3.65179">
        <ele>98.41</ele>
        <time>2019-02-25T15:35:28.000Z</time>
      </trkpt>
      <trkpt lat="49.51554" lon="3.65176">
        <ele>97.1</ele>
        <time>2019-02-25T15:35:38.000Z</time>
      </trkpt>
      <trkpt lat="49.51554" lon="3.65166">
        <ele>95.93</ele>
        <time>2019-02-25T15:35:48.000Z</time>
      </trkpt>
      <trkpt lat="49.51551" lon="3.65173">
        <ele>94.53</ele>
        <time>2019-02-25T15:35:58.000Z</time>
      </trkpt>
      <trkpt lat="49.51551" lon="3.65174">
        <ele>92.31</ele>
        <time>2019-02-25T15:36:08.000Z</time>
      </trkpt>
      <trkpt lat="49.5155" lon="3.65173">
        <ele>91.25</ele>
        <time>2019-02-25T15:36:18.000Z</time>
      </trkpt>
      <trkpt lat="49.51551" lon="3.65172">
        <ele>88.09</ele>
        <time>2019-02-25T15:36:37.000Z</time>
      </trkpt>
      <trkpt lat="49.51552" lon="3.65172">
        <ele>83.31</ele>
        <time>2019-02-25T15:37:03.000Z</time>
      </trkpt>
      <trkpt lat="49.51555" lon="3.65163">
        <ele>84.01</ele>
        <time>2019-02-25T15:37:13.000Z</time>
      </trkpt>
      <trkpt lat="49.51554" lon="3.65149">
        <ele>84.97</ele>
        <time>2019-02-25T15:37:23.000Z</time>
      </trkpt>
      <trkpt lat="49.51551" lon="3.65137">
        <ele>85.84</ele>
        <time>2019-02-25T15:37:33.000Z</time>
      </trkpt>
      <trkpt lat="49.51545" lon="3.65125">
        <ele>87.12</ele>
        <time>2019-02-25T15:37:43.000Z</time>
      </trkpt>
      <trkpt lat="49.51541" lon="3.6511">
        <ele>88.41</ele>
        <time>2019-02-25T15:37:53.000Z</time>
      </trkpt>
      <trkpt lat="49.5153" lon="3.6509">
        <ele>89.8</ele>
        <time>2019-02-25T15:38:03.000Z</time>
      </trkpt>
      <trkpt lat="49.51525" lon="3.65076">
        <ele>91.39</ele>
        <time>2019-02-25T15:38:13.000Z</time>
      </trkpt>
      <trkpt lat="49.5152" lon="3.65064">
        <ele>92.43</ele>
        <time>2019-02-25T15:38:23.000Z</time>
      </trkpt>
      <trkpt lat="49.51513" lon="3.65054">
        <ele>93.66</ele>
        <time>2019-02-25T15:38:33.000Z</time>
      </trkpt>
      <trkpt lat="49.51508" lon="3.65043">
        <ele>95.01</ele>
        <time>2019-02-25T15:38:43.000Z</time>
      </trkpt>
      <trkpt lat="49.515" lon="3.6503">
        <ele>95.8</ele>
        <time>2019-02-25T15:38:53.000Z</time>
      </trkpt>
      <trkpt lat="49.51493" lon="3.65018">
        <ele>96.61</ele>
        <time>2019-02-25T15:39:03.000Z</time>
      </trkpt>
      <trkpt lat="49.51488" lon="3.65">
        <ele>97.42</ele>
        <time>2019-02-25T15:39:13.000Z</time>
      </trkpt>
      <trkpt lat="49.51482" lon="3.64987">
        <ele>98.16</ele>
        <time>2019-02-25T15:39:23.000Z</time>
      </trkpt>
      <trkpt lat="49.51483" lon="3.64979">
        <ele>98.77</ele>
        <time>2019-02-25T15:39:33.000Z</time>
      </trkpt>
      <trkpt lat="49.51489" lon="3.64978">
        <ele>99.09</ele>
        <time>2019-02-25T15:39:43.000Z</time>
      </trkpt>
      <trkpt lat="49.51497" lon="3.64974">
        <ele>99.06</ele>
        <time>2019-02-25T15:39:53.000Z</time>
      </trkpt>
      <trkpt lat="49.51506" lon="3.64972">
        <ele>99.04</ele>
        <time>2019-02-25T15:40:03.000Z</time>
      </trkpt>
      <trkpt lat="49.51516" lon="3.64967">
        <ele>98.99</ele>
        <time>2019-02-25T15:40:13.000Z</time>
      </trkpt>
      <trkpt lat="49.51524" lon="3.64961">
        <ele>98.41</ele>
        <time>2019-02-25T15:40:23.000Z</time>
      </trkpt>
      <trkpt lat="49.51531" lon="3.64964">
        <ele>97.51</ele>
        <time>2019-02-25T15:40:33.000Z</time>
      </trkpt>
      <trkpt lat="49.51539" lon="3.64966">
        <ele>96.1</ele>
        <time>2019-02-25T15:40:43.000Z</time>
      </trkpt>
      <trkpt lat="49.5155" lon="3.64971">
        <ele>94.34</ele>
        <time>2019-02-25T15:40:53.000Z</time>
      </trkpt>
      <trkpt lat="49.51564" lon="3.64982">
        <ele>91.26</ele>
        <time>2019-02-25T15:41:03.000Z</time>
      </trkpt>
      <trkpt lat="49.51573" lon="3.64989">
        <ele>90.45</ele>
        <time>2019-02-25T15:41:13.000Z</time>
      </trkpt>
      <trkpt lat="49.51577" lon="3.64989">
        <ele>89.58</ele>
        <time>2019-02-25T15:41:23.000Z</time>
      </trkpt>
      <trkpt lat="49.51582" lon="3.64995">
        <ele>88.9</ele>
        <time>2019-02-25T15:41:33.000Z</time>
      </trkpt>
      <trkpt lat="49.51585" lon="3.65006">
        <ele>89.09</ele>
        <time>2019-02-25T15:41:43.000Z</time>
      </trkpt>
      <trkpt lat="49.51588" lon="3.65014">
        <ele>89.7</ele>
        <time>2019-02-25T15:41:53.000Z</time>
      </trkpt>
      <trkpt lat="49.51599" lon="3.65029">
        <ele>89.63</ele>
        <time>2019-02-25T15:42:03.000Z</time>
      </trkpt>
      <trkpt lat="49.51604" lon="3.65043">
        <ele>88.87</ele>
        <time>2019-02-25T15:42:13.000Z</time>
      </trkpt>
      <trkpt lat="49.51608" lon="3.65056">
        <ele>88.16</ele>
        <time>2019-02-25T15:42:23.000Z</time>
      </trkpt>
      <trkpt lat="49.51612" lon="3.65072">
        <ele>87.17</ele>
        <time>2019-02-25T15:42:33.000Z</time>
      </trkpt>
      <trkpt lat="49.51614" lon="3.65087">
        <ele>86.45</ele>
        <time>2019-02-25T15:42:43.000Z</time>
      </trkpt>
      <trkpt lat="49.51616" lon="3.65096">
        <ele>85.62</ele>
        <time>2019-02-25T15:42:53.000Z</time>
      </trkpt>
      <trkpt lat="49.51618" lon="3.65108">
        <ele>86.1</ele>
        <time>2019-02-25T15:43:03.000Z</time>
      </trkpt>
      <trkpt lat="49.51625" lon="3.65126">
        <ele>86.89</ele>
        <time>2019-02-25T15:43:13.000Z</time>
      </trkpt>
      <trkpt lat="49.51632" lon="3.65145">
        <ele>88.1</ele>
        <time>2019-02-25T15:43:23.000Z</time>
      </trkpt>
      <trkpt lat="49.51637" lon="3.65152">
        <ele>88.86</ele>
        <time>2019-02-25T15:43:33.000Z</time>
      </trkpt>
      <trkpt lat="49.51636" lon="3.6515">
        <ele>88.77</ele>
        <time>2019-02-25T15:43:43.000Z</time>
      </trkpt>
      <trkpt lat="49.51635" lon="3.65148">
        <ele>89.47</ele>
        <time>2019-02-25T15:43:53.000Z</time>
      </trkpt>
      <trkpt lat="49.51634" lon="3.65148">
        <ele>92.85</ele>
        <time>2019-02-25T15:44:10.000Z</time>
      </trkpt>
      <trkpt lat="49.51635" lon="3.65154">
        <ele>93.55</ele>
        <time>2019-02-25T15:44:20.000Z</time>
      </trkpt>
      <trkpt lat="49.51636" lon="3.65155">
        <ele>92.52</ele>
        <time>2019-02-25T15:44:30.000Z</time>
      </trkpt>
      <trkpt lat="49.51638" lon="3.65157">
        <ele>93.02</ele>
        <time>2019-02-25T15:45:15.000Z</time>
      </trkpt>
      <trkpt lat="49.51641" lon="3.6516">
        <ele>93.37</ele>
        <time>2019-02-25T15:45:25.000Z</time>
      </trkpt>
      <trkpt lat="49.51643" lon="3.6516">
        <ele>89.99</ele>
        <time>2019-02-25T15:46:40.000Z</time>
      </trkpt>
      <trkpt lat="49.51644" lon="3.65174">
        <ele>89.39</ele>
        <time>2019-02-25T15:46:50.000Z</time>
      </trkpt>
      <trkpt lat="49.51648" lon="3.65189">
        <ele>87.64</ele>
        <time>2019-02-25T15:47:00.000Z</time>
      </trkpt>
      <trkpt lat="49.51657" lon="3.65204">
        <ele>86.68</ele>
        <time>2019-02-25T15:47:10.000Z</time>
      </trkpt>
      <trkpt lat="49.51669" lon="3.65212">
        <ele>85.94</ele>
        <time>2019-02-25T15:47:20.000Z</time>
      </trkpt>
      <trkpt lat="49.51684" lon="3.65206">
        <ele>85.04</ele>
        <time>2019-02-25T15:47:30.000Z</time>
      </trkpt>
      <trkpt lat="49.51695" lon="3.65205">
        <ele>85.3</ele>
        <time>2019-02-25T15:47:40.000Z</time>
      </trkpt>
      <trkpt lat="49.51706" lon="3.65209">
        <ele>85.95</ele>
        <time>2019-02-25T15:47:50.000Z</time>
      </trkpt>
      <trkpt lat="49.51716" lon="3.65216">
        <ele>85.81</ele>
        <time>2019-02-25T15:48:00.000Z</time>
      </trkpt>
      <trkpt lat="49.51725" lon="3.65224">
        <ele>84.73</ele>
        <time>2019-02-25T15:48:10.000Z</time>
      </trkpt>
      <trkpt lat="49.51734" lon="3.65228">
        <ele>85.12</ele>
        <time>2019-02-25T15:48:20.000Z</time>
      </trkpt>
      <trkpt lat="49.51743" lon="3.65235">
        <ele>84.59</ele>
        <time>2019-02-25T15:48:30.000Z</time>
      </trkpt>
      <trkpt lat="49.51748" lon="3.65231">
        <ele>84.05</ele>
        <time>2019-02-25T15:48:40.000Z</time>
      </trkpt>
      <trkpt lat="49.51752" lon="3.65237">
        <ele>84.75</ele>
        <time>2019-02-25T15:48:50.000Z</time>
      </trkpt>
      <trkpt lat="49.51755" lon="3.65237">
        <ele>85.64</ele>
        <time>2019-02-25T15:49:00.000Z</time>
      </trkpt>
      <trkpt lat="49.5176" lon="3.65231">
        <ele>86.47</ele>
        <time>2019-02-25T15:49:10.000Z</time>
      </trkpt>
      <trkpt lat="49.5177" lon="3.65223">
        <ele>87.66</ele>
        <time>2019-02-25T15:49:20.000Z</time>
      </trkpt>
      <trkpt lat="49.51779" lon="3.65217">
        <ele>89.08</ele>
        <time>2019-02-25T15:49:30.000Z</time>
      </trkpt>
      <trkpt lat="49.51791" lon="3.65207">
        <ele>89.46</ele>
        <time>2019-02-25T15:49:40.000Z</time>
      </trkpt>
      <trkpt lat="49.51804" lon="3.65193">
        <ele>89.75</ele>
        <time>2019-02-25T15:49:50.000Z</time>
      </trkpt>
      <trkpt lat="49.51814" lon="3.6518">
        <ele>89.3</ele>
        <time>2019-02-25T15:50:00.000Z</time>
      </trkpt>
      <trkpt lat="49.51819" lon="3.65168">
        <ele>87.94</ele>
        <time>2019-02-25T15:50:10.000Z</time>
      </trkpt>
      <trkpt lat="49.51818" lon="3.65164">
        <ele>87.95</ele>
        <time>2019-02-25T15:50:20.000Z</time>
      </trkpt>
      <trkpt lat="49.51822" lon="3.65165">
        <ele>88.03</ele>
        <time>2019-02-25T15:50:30.000Z</time>
      </trkpt>
      <trkpt lat="49.5183" lon="3.65159">
        <ele>88.38</ele>
        <time>2019-02-25T15:50:40.000Z</time>
      </trkpt>
      <trkpt lat="49.51838" lon="3.65158">
        <ele>88.56</ele>
        <time>2019-02-25T15:50:50.000Z</time>
      </trkpt>
      <trkpt lat="49.51847" lon="3.65161">
        <ele>89.76</ele>
        <time>2019-02-25T15:51:00.000Z</time>
      </trkpt>
      <trkpt lat="49.5186" lon="3.65165">
        <ele>90.72</ele>
        <time>2019-02-25T15:51:10.000Z</time>
      </trkpt>
      <trkpt lat="49.51871" lon="3.65177">
        <ele>90.85</ele>
        <time>2019-02-25T15:51:20.000Z</time>
      </trkpt>
      <trkpt lat="49.5188" lon="3.65183">
        <ele>90.99</ele>
        <time>2019-02-25T15:51:30.000Z</time>
      </trkpt>
      <trkpt lat="49.51886" lon="3.65185">
        <ele>90.93</ele>
        <time>2019-02-25T15:51:40.000Z</time>
      </trkpt>
      <trkpt lat="49.51897" lon="3.65192">
        <ele>89.89</ele>
        <time>2019-02-25T15:51:50.000Z</time>
      </trkpt>
      <trkpt lat="49.51906" lon="3.65199">
        <ele>88.45</ele>
        <time>2019-02-25T15:52:00.000Z</time>
      </trkpt>
      <trkpt lat="49.51921" lon="3.65212">
        <ele>86.59</ele>
        <time>2019-02-25T15:52:10.000Z</time>
      </trkpt>
      <trkpt lat="49.51934" lon="3.65224">
        <ele>84.9</ele>
        <time>2019-02-25T15:52:20.000Z</time>
      </trkpt>
      <trkpt lat="49.51945" lon="3.65231">
        <ele>83.55</ele>
        <time>2019-02-25T15:52:30.000Z</time>
      </trkpt>
      <trkpt lat="49.51952" lon="3.65237">
        <ele>82.82</ele>
        <time>2019-02-25T15:52:40.000Z</time>
      </trkpt>
      <trkpt lat="49.51962" lon="3.65253">
        <ele>82.34</ele>
        <time>2019-02-25T15:52:50.000Z</time>
      </trkpt>
      <trkpt lat="49.51969" lon="3.65267">
        <ele>81.24</ele>
        <time>2019-02-25T15:53:00.000Z</time>
      </trkpt>
      <trkpt lat="49.51971" lon="3.65279">
        <ele>78.45</ele>
        <time>2019-02-25T15:53:10.000Z</time>
      </trkpt>
      <trkpt lat="49.51966" lon="3.65296">
        <ele>73.58</ele>
        <time>2019-02-25T15:53:20.000Z</time>
      </trkpt>
      <trkpt lat="49.51965" lon="3.65313">
        <ele>71.15</ele>
        <time>2019-02-25T15:53:30.000Z</time>
      </trkpt>
      <trkpt lat="49.51965" lon="3.65323">
        <ele>72.55</ele>
        <time>2019-02-25T15:53:40.000Z</time>
      </trkpt>
      <trkpt lat="49.51969" lon="3.65335">
        <ele>72.87</ele>
        <time>2019-02-25T15:53:50.000Z</time>
      </trkpt>
      <trkpt lat="49.51975" lon="3.65346">
        <ele>74.39</ele>
        <time>2019-02-25T15:54:00.000Z</time>
      </trkpt>
      <trkpt lat="49.51985" lon="3.65358">
        <ele>75.63</ele>
        <time>2019-02-25T15:54:10.000Z</time>
      </trkpt>
      <trkpt lat="49.51994" lon="3.65367">
        <ele>76.61</ele>
        <time>2019-02-25T15:54:20.000Z</time>
      </trkpt>
      <trkpt lat="49.52" lon="3.65384">
        <ele>76.6</ele>
        <time>2019-02-25T15:54:30.000Z</time>
      </trkpt>
      <trkpt lat="49.52006" lon="3.654">
        <ele>77.77</ele>
        <time>2019-02-25T15:54:40.000Z</time>
      </trkpt>
      <trkpt lat="49.52014" lon="3.65419">
        <ele>76.72</ele>
        <time>2019-02-25T15:54:50.000Z</time>
      </trkpt>
      <trkpt lat="49.52018" lon="3.65436">
        <ele>75.43</ele>
        <time>2019-02-25T15:55:00.000Z</time>
      </trkpt>
      <trkpt lat="49.52023" lon="3.65457">
        <ele>75.73</ele>
        <time>2019-02-25T15:55:10.000Z</time>
      </trkpt>
      <trkpt lat="49.52027" lon="3.65474">
        <ele>75</ele>
        <time>2019-02-25T15:55:20.000Z</time>
      </trkpt>
      <trkpt lat="49.52027" lon="3.65486">
        <ele>73.08</ele>
        <time>2019-02-25T15:55:30.000Z</time>
      </trkpt>
      <trkpt lat="49.52038" lon="3.65504">
        <ele>72.3</ele>
        <time>2019-02-25T15:55:40.000Z</time>
      </trkpt>
      <trkpt lat="49.52047" lon="3.65525">
        <ele>72.33</ele>
        <time>2019-02-25T15:55:50.000Z</time>
      </trkpt>
      <trkpt lat="49.52061" lon="3.6554">
        <ele>73.17</ele>
        <time>2019-02-25T15:56:00.000Z</time>
      </trkpt>
      <trkpt lat="49.52075" lon="3.65544">
        <ele>75.22</ele>
        <time>2019-02-25T15:56:10.000Z</time>
      </trkpt>
      <trkpt lat="49.52085" lon="3.65544">
        <ele>78.58</ele>
        <time>2019-02-25T15:56:20.000Z</time>
      </trkpt>
      <trkpt lat="49.52096" lon="3.65535">
        <ele>83.49</ele>
        <time>2019-02-25T15:56:30.000Z</time>
      </trkpt>
      <trkpt lat="49.52105" lon="3.65525">
        <ele>89.29</ele>
        <time>2019-02-25T15:56:40.000Z</time>
      </trkpt>
      <trkpt lat="49.52109" lon="3.65516">
        <ele>92.39</ele>
        <time>2019-02-25T15:56:50.000Z</time>
      </trkpt>
      <trkpt lat="49.52119" lon="3.65512">
        <ele>93.61</ele>
        <time>2019-02-25T15:57:00.000Z</time>
      </trkpt>
      <trkpt lat="49.52128" lon="3.65511">
        <ele>94.75</ele>
        <time>2019-02-25T15:57:10.000Z</time>
      </trkpt>
      <trkpt lat="49.52139" lon="3.65518">
        <ele>95.51</ele>
        <time>2019-02-25T15:57:20.000Z</time>
      </trkpt>
      <trkpt lat="49.52152" lon="3.65524">
        <ele>97.31</ele>
        <time>2019-02-25T15:57:30.000Z</time>
      </trkpt>
      <trkpt lat="49.52169" lon="3.65521">
        <ele>98.38</ele>
        <time>2019-02-25T15:57:40.000Z</time>
      </trkpt>
      <trkpt lat="49.52186" lon="3.65514">
        <ele>99.34</ele>
        <time>2019-02-25T15:57:50.000Z</time>
      </trkpt>
      <trkpt lat="49.52197" lon="3.65519">
        <ele>99.75</ele>
        <time>2019-02-25T15:58:00.000Z</time>
      </trkpt>
      <trkpt lat="49.52207" lon="3.65524">
        <ele>98.37</ele>
        <time>2019-02-25T15:58:10.000Z</time>
      </trkpt>
      <trkpt lat="49.52218" lon="3.65529">
        <ele>95.97</ele>
        <time>2019-02-25T15:58:20.000Z</time>
      </trkpt>
      <trkpt lat="49.52223" lon="3.65532">
        <ele>94.79</ele>
        <time>2019-02-25T15:58:30.000Z</time>
      </trkpt>
      <trkpt lat="49.52234" lon="3.65537">
        <ele>93.66</ele>
        <time>2019-02-25T15:58:40.000Z</time>
      </trkpt>
      <trkpt lat="49.52246" lon="3.65542">
        <ele>93.02</ele>
        <time>2019-02-25T15:58:50.000Z</time>
      </trkpt>
      <trkpt lat="49.52253" lon="3.65546">
        <ele>92.06</ele>
        <time>2019-02-25T15:59:00.000Z</time>
      </trkpt>
      <trkpt lat="49.52261" lon="3.65553">
        <ele>91.05</ele>
        <time>2019-02-25T15:59:10.000Z</time>
      </trkpt>
      <trkpt lat="49.52268" lon="3.65568">
        <ele>90.58</ele>
        <time>2019-02-25T15:59:20.000Z</time>
      </trkpt>
      <trkpt lat="49.52274" lon="3.65588">
        <ele>90.73</ele>
        <time>2019-02-25T15:59:30.000Z</time>
      </trkpt>
      <trkpt lat="49.52278" lon="3.65604">
        <ele>91.07</ele>
        <time>2019-02-25T15:59:40.000Z</time>
      </trkpt>
      <trkpt lat="49.52284" lon="3.65614">
        <ele>90.89</ele>
        <time>2019-02-25T15:59:50.000Z</time>
      </trkpt>
      <trkpt lat="49.52295" lon="3.65624">
        <ele>90.34</ele>
        <time>2019-02-25T16:00:00.000Z</time>
      </trkpt>
      <trkpt lat="49.52313" lon="3.65628">
        <ele>88.37</ele>
        <time>2019-02-25T16:00:10.000Z</time>
      </trkpt>
      <trkpt lat="49.52321" lon="3.65631">
        <ele>86.56</ele>
        <time>2019-02-25T16:00:20.000Z</time>
      </trkpt>
      <trkpt lat="49.52324" lon="3.65638">
        <ele>85.24</ele>
        <time>2019-02-25T16:00:30.000Z</time>
      </trkpt>
      <trkpt lat="49.52332" lon="3.65645">
        <ele>84.57</ele>
        <time>2019-02-25T16:00:40.000Z</time>
      </trkpt>
      <trkpt lat="49.52337" lon="3.65654">
        <ele>83.94</ele>
        <time>2019-02-25T16:00:50.000Z</time>
      </trkpt>
      <trkpt lat="49.52339" lon="3.65658">
        <ele>84.45</ele>
        <time>2019-02-25T16:01:00.000Z</time>
      </trkpt>
      <trkpt lat="49.52344" lon="3.65672">
        <ele>85.43</ele>
        <time>2019-02-25T16:01:10.000Z</time>
      </trkpt>
      <trkpt lat="49.52354" lon="3.65685">
        <ele>85.44</ele>
        <time>2019-02-25T16:01:20.000Z</time>
      </trkpt>
      <trkpt lat="49.5236" lon="3.6569">
        <ele>85.61</ele>
        <time>2019-02-25T16:01:30.000Z</time>
      </trkpt>
      <trkpt lat="49.52361" lon="3.65692">
        <ele>85.69</ele>
        <time>2019-02-25T16:02:04.000Z</time>
      </trkpt>
      <trkpt lat="49.52367" lon="3.65688">
        <ele>85.92</ele>
        <time>2019-02-25T16:02:14.000Z</time>
      </trkpt>
      <trkpt lat="49.52366" lon="3.65692">
        <ele>85.28</ele>
        <time>2019-02-25T16:02:24.000Z</time>
      </trkpt>
      <trkpt lat="49.52368" lon="3.65693">
        <ele>84.8</ele>
        <time>2019-02-25T16:02:34.000Z</time>
      </trkpt>
      <trkpt lat="49.52372" lon="3.65698">
        <ele>84.75</ele>
        <time>2019-02-25T16:02:44.000Z</time>
      </trkpt>
      <trkpt lat="49.52376" lon="3.65712">
        <ele>84.6</ele>
        <time>2019-02-25T16:02:54.000Z</time>
      </trkpt>
      <trkpt lat="49.52384" lon="3.6573">
        <ele>84.12</ele>
        <time>2019-02-25T16:03:04.000Z</time>
      </trkpt>
      <trkpt lat="49.52393" lon="3.65746">
        <ele>83.07</ele>
        <time>2019-02-25T16:03:14.000Z</time>
      </trkpt>
      <trkpt lat="49.5241" lon="3.65752">
        <ele>81.43</ele>
        <time>2019-02-25T16:03:24.000Z</time>
      </trkpt>
      <trkpt lat="49.52424" lon="3.65747">
        <ele>82.2</ele>
        <time>2019-02-25T16:03:34.000Z</time>
      </trkpt>
      <trkpt lat="49.52435" lon="3.65748">
        <ele>87.88</ele>
        <time>2019-02-25T16:03:44.000Z</time>
      </trkpt>
      <trkpt lat="49.52443" lon="3.65757">
        <ele>89.56</ele>
        <time>2019-02-25T16:03:54.000Z</time>
      </trkpt>
      <trkpt lat="49.52445" lon="3.65767">
        <ele>88.58</ele>
        <time>2019-02-25T16:04:04.000Z</time>
      </trkpt>
      <trkpt lat="49.52453" lon="3.65778">
        <ele>83</ele>
        <time>2019-02-25T16:04:14.000Z</time>
      </trkpt>
      <trkpt lat="49.52463" lon="3.65799">
        <ele>73.71</ele>
        <time>2019-02-25T16:04:24.000Z</time>
      </trkpt>
      <trkpt lat="49.52472" lon="3.65811">
        <ele>61.26</ele>
        <time>2019-02-25T16:04:34.000Z</time>
      </trkpt>
      <trkpt lat="49.5248" lon="3.65813">
        <ele>48.22</ele>
        <time>2019-02-25T16:04:44.000Z</time>
      </trkpt>
      <trkpt lat="49.52487" lon="3.65815">
        <ele>33.54</ele>
        <time>2019-02-25T16:04:54.000Z</time>
      </trkpt>
      <trkpt lat="49.52497" lon="3.65821">
        <ele>23.23</ele>
        <time>2019-02-25T16:05:04.000Z</time>
      </trkpt>
      <trkpt lat="49.52505" lon="3.65828">
        <ele>17.34</ele>
        <time>2019-02-25T16:05:14.000Z</time>
      </trkpt>
      <trkpt lat="49.52508" lon="3.65835">
        <ele>14.7</ele>
        <time>2019-02-25T16:05:24.000Z</time>
      </trkpt>
      <trkpt lat="49.52508" lon="3.65832">
        <ele>14.53</ele>
        <time>2019-02-25T16:05:34.000Z</time>
      </trkpt>
      <trkpt lat="49.52506" lon="3.65838">
        <ele>15.77</ele>
        <time>2019-02-25T16:05:53.000Z</time>
      </trkpt>
      <trkpt lat="49.52498" lon="3.65858">
        <ele>16.25</ele>
        <time>2019-02-25T16:06:00.000Z</time>
      </trkpt>
    </trkseg>
  </trk>
</gpx>